<?xml version="1.0" encoding="UTF-8" standalone="no" ?>
<gpx xmlns="http://www.topografix.com/GPX/1/1" xmlns:xsi="http://www.w3.org/2001/XMLSchema-instance" xsi:schemaLocation="http://www.topografix.com/GPX/1/1 http://www.topografix.com/GPX/1/1/gpx.xsd" version="1.1" creator="VisuGPX - https://www.visugpx.com">
  <metadata>
    <name>GTPR 2019</name>
  </metadata>
  <trk>
    <name><![CDATA[20190510164004-MpfnD]]></name>
    <trkseg>
      <trkpt lat="44.8172" lon="5.75169">
        <ele>781</ele>
        <time>2019-05-10T14:53:14Z</time>
      </trkpt>
      <trkpt lat="44.81749" lon="5.75296">
        <ele>784</ele>
        <time>2019-05-10T14:54:14Z</time>
      </trkpt>
      <trkpt lat="44.81807" lon="5.75408">
        <ele>787</ele>
        <time>2019-05-10T14:55:14Z</time>
      </trkpt>
      <trkpt lat="44.81778" lon="5.75659">
        <ele>793</ele>
        <time>2019-05-10T14:56:14Z</time>
      </trkpt>
      <trkpt lat="44.81883" lon="5.75715">
        <ele>793</ele>
        <time>2019-05-10T14:57:14Z</time>
      </trkpt>
      <trkpt lat="44.82422" lon="5.76312">
        <ele>812</ele>
        <time>2019-05-10T14:58:14Z</time>
      </trkpt>
      <trkpt lat="44.83121" lon="5.77072">
        <ele>843</ele>
        <time>2019-05-10T14:59:14Z</time>
      </trkpt>
      <trkpt lat="44.83291" lon="5.77098">
        <ele>855</ele>
        <time>2019-05-10T15:00:14Z</time>
      </trkpt>
      <trkpt lat="44.83544" lon="5.77496">
        <ele>890</ele>
        <time>2019-05-10T15:01:14Z</time>
      </trkpt>
      <trkpt lat="44.83537" lon="5.77572">
        <ele>886</ele>
        <time>2019-05-10T15:02:14Z</time>
      </trkpt>
      <trkpt lat="44.8358" lon="5.7768">
        <ele>895</ele>
        <time>2019-05-10T15:03:14Z</time>
      </trkpt>
      <trkpt lat="44.8366" lon="5.77761">
        <ele>907</ele>
        <time>2019-05-10T15:04:14Z</time>
      </trkpt>
      <trkpt lat="44.83747" lon="5.77981">
        <ele>915</ele>
        <time>2019-05-10T15:05:14Z</time>
      </trkpt>
      <trkpt lat="44.83877" lon="5.77986">
        <ele>930</ele>
        <time>2019-05-10T15:06:14Z</time>
      </trkpt>
      <trkpt lat="44.84098" lon="5.78159">
        <ele>952</ele>
        <time>2019-05-10T15:07:14Z</time>
      </trkpt>
      <trkpt lat="44.84221" lon="5.78266">
        <ele>967</ele>
        <time>2019-05-10T15:08:14Z</time>
      </trkpt>
      <trkpt lat="44.84232" lon="5.78389">
        <ele>971</ele>
        <time>2019-05-10T15:09:14Z</time>
      </trkpt>
      <trkpt lat="44.84178" lon="5.78476">
        <ele>976</ele>
        <time>2019-05-10T15:10:14Z</time>
      </trkpt>
      <trkpt lat="44.84105" lon="5.78511">
        <ele>968</ele>
        <time>2019-05-10T15:11:14Z</time>
      </trkpt>
      <trkpt lat="44.84156" lon="5.78665">
        <ele>988</ele>
        <time>2019-05-10T15:12:14Z</time>
      </trkpt>
      <trkpt lat="44.84214" lon="5.78761">
        <ele>989</ele>
        <time>2019-05-10T15:13:14Z</time>
      </trkpt>
      <trkpt lat="44.84221" lon="5.78955">
        <ele>984</ele>
        <time>2019-05-10T15:14:14Z</time>
      </trkpt>
      <trkpt lat="44.84163" lon="5.79109">
        <ele>976</ele>
        <time>2019-05-10T15:15:14Z</time>
      </trkpt>
      <trkpt lat="44.84087" lon="5.79257">
        <ele>965</ele>
        <time>2019-05-10T15:16:14Z</time>
      </trkpt>
      <trkpt lat="44.83993" lon="5.79394">
        <ele>957</ele>
        <time>2019-05-10T15:17:14Z</time>
      </trkpt>
      <trkpt lat="44.83899" lon="5.79563">
        <ele>948</ele>
        <time>2019-05-10T15:18:14Z</time>
      </trkpt>
      <trkpt lat="44.83856" lon="5.79808">
        <ele>936</ele>
        <time>2019-05-10T15:19:14Z</time>
      </trkpt>
      <trkpt lat="44.83924" lon="5.799">
        <ele>925</ele>
        <time>2019-05-10T15:20:14Z</time>
      </trkpt>
      <trkpt lat="44.83935" lon="5.79971">
        <ele>927</ele>
        <time>2019-05-10T15:21:14Z</time>
      </trkpt>
      <trkpt lat="44.84217" lon="5.80252">
        <ele>909</ele>
        <time>2019-05-10T15:22:14Z</time>
      </trkpt>
      <trkpt lat="44.84311" lon="5.80405">
        <ele>907</ele>
        <time>2019-05-10T15:23:14Z</time>
      </trkpt>
      <trkpt lat="44.84366" lon="5.80614">
        <ele>904</ele>
        <time>2019-05-10T15:24:14Z</time>
      </trkpt>
      <trkpt lat="44.84402" lon="5.81002">
        <ele>899</ele>
        <time>2019-05-10T15:25:14Z</time>
      </trkpt>
      <trkpt lat="44.84435" lon="5.81165">
        <ele>899</ele>
        <time>2019-05-10T15:26:14Z</time>
      </trkpt>
      <trkpt lat="44.84377" lon="5.81625">
        <ele>900</ele>
        <time>2019-05-10T15:27:14Z</time>
      </trkpt>
      <trkpt lat="44.84402" lon="5.81798">
        <ele>899</ele>
        <time>2019-05-10T15:28:14Z</time>
      </trkpt>
      <trkpt lat="44.84359" lon="5.8212">
        <ele>893</ele>
        <time>2019-05-10T15:29:14Z</time>
      </trkpt>
      <trkpt lat="44.84315" lon="5.82314">
        <ele>890</ele>
        <time>2019-05-10T15:30:14Z</time>
      </trkpt>
      <trkpt lat="44.84196" lon="5.82513">
        <ele>893</ele>
        <time>2019-05-10T15:31:14Z</time>
      </trkpt>
      <trkpt lat="44.84109" lon="5.82625">
        <ele>889</ele>
        <time>2019-05-10T15:32:14Z</time>
      </trkpt>
      <trkpt lat="44.84004" lon="5.82742">
        <ele>888</ele>
        <time>2019-05-10T15:33:14Z</time>
      </trkpt>
      <trkpt lat="44.83856" lon="5.83054">
        <ele>889</ele>
        <time>2019-05-10T15:34:14Z</time>
      </trkpt>
      <trkpt lat="44.83685" lon="5.83171">
        <ele>884</ele>
        <time>2019-05-10T15:35:14Z</time>
      </trkpt>
      <trkpt lat="44.8349" lon="5.83447">
        <ele>881</ele>
        <time>2019-05-10T15:36:14Z</time>
      </trkpt>
      <trkpt lat="44.83215" lon="5.83712">
        <ele>882</ele>
        <time>2019-05-10T15:37:14Z</time>
      </trkpt>
      <trkpt lat="44.83027" lon="5.83651">
        <ele>890</ele>
        <time>2019-05-10T15:38:14Z</time>
      </trkpt>
      <trkpt lat="44.82991" lon="5.83656">
        <ele>893</ele>
        <time>2019-05-10T15:39:14Z</time>
      </trkpt>
      <trkpt lat="44.83001" lon="5.83773">
        <ele>892</ele>
        <time>2019-05-10T15:40:14Z</time>
      </trkpt>
      <trkpt lat="44.82936" lon="5.83834">
        <ele>897</ele>
        <time>2019-05-10T15:41:14Z</time>
      </trkpt>
      <trkpt lat="44.82828" lon="5.83906">
        <ele>901</ele>
        <time>2019-05-10T15:42:14Z</time>
      </trkpt>
      <trkpt lat="44.82683" lon="5.84181">
        <ele>903</ele>
        <time>2019-05-10T15:43:14Z</time>
      </trkpt>
      <trkpt lat="44.82744" lon="5.84493">
        <ele>912</ele>
        <time>2019-05-10T15:44:14Z</time>
      </trkpt>
      <trkpt lat="44.82607" lon="5.84702">
        <ele>924</ele>
        <time>2019-05-10T15:45:14Z</time>
      </trkpt>
      <trkpt lat="44.82473" lon="5.84947">
        <ele>937</ele>
        <time>2019-05-10T15:46:14Z</time>
      </trkpt>
      <trkpt lat="44.82386" lon="5.8512">
        <ele>927</ele>
        <time>2019-05-10T15:47:14Z</time>
      </trkpt>
      <trkpt lat="44.82288" lon="5.85146">
        <ele>942</ele>
        <time>2019-05-10T15:48:14Z</time>
      </trkpt>
      <trkpt lat="44.8222" lon="5.85314">
        <ele>942</ele>
        <time>2019-05-10T15:49:14Z</time>
      </trkpt>
      <trkpt lat="44.82129" lon="5.85411">
        <ele>952</ele>
        <time>2019-05-10T15:50:14Z</time>
      </trkpt>
      <trkpt lat="44.82039" lon="5.85616">
        <ele>945</ele>
        <time>2019-05-10T15:51:14Z</time>
      </trkpt>
      <trkpt lat="44.81992" lon="5.85636">
        <ele>956</ele>
        <time>2019-05-10T15:52:14Z</time>
      </trkpt>
      <trkpt lat="44.81887" lon="5.8606">
        <ele>946</ele>
        <time>2019-05-10T15:53:14Z</time>
      </trkpt>
      <trkpt lat="44.81829" lon="5.86044">
        <ele>944</ele>
        <time>2019-05-10T15:54:14Z</time>
      </trkpt>
      <trkpt lat="44.81753" lon="5.85988">
        <ele>939</ele>
        <time>2019-05-10T15:55:14Z</time>
      </trkpt>
      <trkpt lat="44.81687" lon="5.85906">
        <ele>945</ele>
        <time>2019-05-10T15:56:14Z</time>
      </trkpt>
      <trkpt lat="44.81619" lon="5.86065">
        <ele>921</ele>
        <time>2019-05-10T15:57:14Z</time>
      </trkpt>
      <trkpt lat="44.8155" lon="5.86116">
        <ele>914</ele>
        <time>2019-05-10T15:58:14Z</time>
      </trkpt>
      <trkpt lat="44.81463" lon="5.86116">
        <ele>912</ele>
        <time>2019-05-10T15:59:14Z</time>
      </trkpt>
      <trkpt lat="44.81329" lon="5.86202">
        <ele>899</ele>
        <time>2019-05-10T16:00:14Z</time>
      </trkpt>
      <trkpt lat="44.81271" lon="5.86356">
        <ele>883</ele>
        <time>2019-05-10T16:01:14Z</time>
      </trkpt>
      <trkpt lat="44.8121" lon="5.86417">
        <ele>881</ele>
        <time>2019-05-10T16:02:14Z</time>
      </trkpt>
      <trkpt lat="44.81217" lon="5.86478">
        <ele>884</ele>
        <time>2019-05-10T16:03:14Z</time>
      </trkpt>
      <trkpt lat="44.81307" lon="5.86555">
        <ele>891</ele>
        <time>2019-05-10T16:04:14Z</time>
      </trkpt>
      <trkpt lat="44.81459" lon="5.86544">
        <ele>896</ele>
        <time>2019-05-10T16:05:14Z</time>
      </trkpt>
      <trkpt lat="44.81545" lon="5.86521">
        <ele>895</ele>
        <time>2019-05-10T16:06:14Z</time>
      </trkpt>
      <trkpt lat="44.81612" lon="5.86574">
        <ele>903</ele>
        <time>2019-05-10T16:07:14Z</time>
      </trkpt>
      <trkpt lat="44.81724" lon="5.86626">
        <ele>899</ele>
        <time>2019-05-10T16:08:14Z</time>
      </trkpt>
      <trkpt lat="44.81731" lon="5.86684">
        <ele>905</ele>
        <time>2019-05-10T16:09:14Z</time>
      </trkpt>
      <trkpt lat="44.81699" lon="5.86746">
        <ele>906</ele>
        <time>2019-05-10T16:10:14Z</time>
      </trkpt>
      <trkpt lat="44.81235" lon="5.86967">
        <ele>915</ele>
        <time>2019-05-10T16:11:14Z</time>
      </trkpt>
      <trkpt lat="44.81189" lon="5.86969">
        <ele>907</ele>
        <time>2019-05-10T16:12:14Z</time>
      </trkpt>
      <trkpt lat="44.81143" lon="5.86897">
        <ele>914</ele>
        <time>2019-05-10T16:13:14Z</time>
      </trkpt>
      <trkpt lat="44.80951" lon="5.8685">
        <ele>918</ele>
        <time>2019-05-10T16:14:14Z</time>
      </trkpt>
      <trkpt lat="44.80874" lon="5.86894">
        <ele>901</ele>
        <time>2019-05-10T16:15:14Z</time>
      </trkpt>
      <trkpt lat="44.80787" lon="5.86908">
        <ele>903</ele>
        <time>2019-05-10T16:16:14Z</time>
      </trkpt>
      <trkpt lat="44.80751" lon="5.8694">
        <ele>899</ele>
        <time>2019-05-10T16:17:14Z</time>
      </trkpt>
      <trkpt lat="44.80669" lon="5.86966">
        <ele>894</ele>
        <time>2019-05-10T16:18:14Z</time>
      </trkpt>
      <trkpt lat="44.807" lon="5.87027">
        <ele>897</ele>
        <time>2019-05-10T16:19:14Z</time>
      </trkpt>
      <trkpt lat="44.80815" lon="5.87042">
        <ele>894</ele>
        <time>2019-05-10T16:20:14Z</time>
      </trkpt>
      <trkpt lat="44.80905" lon="5.8706">
        <ele>885</ele>
        <time>2019-05-10T16:21:14Z</time>
      </trkpt>
      <trkpt lat="44.80979" lon="5.87197">
        <ele>903</ele>
        <time>2019-05-10T16:22:14Z</time>
      </trkpt>
      <trkpt lat="44.81074" lon="5.87272">
        <ele>895</ele>
        <time>2019-05-10T16:23:14Z</time>
      </trkpt>
      <trkpt lat="44.81097" lon="5.8763">
        <ele>905</ele>
        <time>2019-05-10T16:24:14Z</time>
      </trkpt>
      <trkpt lat="44.81074" lon="5.87792">
        <ele>916</ele>
        <time>2019-05-10T16:25:14Z</time>
      </trkpt>
      <trkpt lat="44.81217" lon="5.88142">
        <ele>907</ele>
        <time>2019-05-10T16:26:14Z</time>
      </trkpt>
      <trkpt lat="44.81174" lon="5.88326">
        <ele>909</ele>
        <time>2019-05-10T16:27:14Z</time>
      </trkpt>
      <trkpt lat="44.81076" lon="5.88561">
        <ele>904</ele>
        <time>2019-05-10T16:28:14Z</time>
      </trkpt>
      <trkpt lat="44.81039" lon="5.88623">
        <ele>908</ele>
        <time>2019-05-10T16:29:14Z</time>
      </trkpt>
      <trkpt lat="44.81011" lon="5.88683">
        <ele>907</ele>
        <time>2019-05-10T16:30:14Z</time>
      </trkpt>
      <trkpt lat="44.80973" lon="5.88729">
        <ele>910</ele>
        <time>2019-05-10T16:31:14Z</time>
      </trkpt>
      <trkpt lat="44.80927" lon="5.88815">
        <ele>912</ele>
        <time>2019-05-10T16:32:14Z</time>
      </trkpt>
      <trkpt lat="44.80779" lon="5.89117">
        <ele>917</ele>
        <time>2019-05-10T16:33:14Z</time>
      </trkpt>
      <trkpt lat="44.80695" lon="5.8934">
        <ele>917</ele>
        <time>2019-05-10T16:34:14Z</time>
      </trkpt>
      <trkpt lat="44.80631" lon="5.89409">
        <ele>919</ele>
        <time>2019-05-10T16:35:14Z</time>
      </trkpt>
      <trkpt lat="44.80564" lon="5.89524">
        <ele>920</ele>
        <time>2019-05-10T16:36:14Z</time>
      </trkpt>
      <trkpt lat="44.80372" lon="5.89766">
        <ele>918</ele>
        <time>2019-05-10T16:37:14Z</time>
      </trkpt>
      <trkpt lat="44.8027" lon="5.89954">
        <ele>922</ele>
        <time>2019-05-10T16:38:14Z</time>
      </trkpt>
      <trkpt lat="44.80213" lon="5.90102">
        <ele>933</ele>
        <time>2019-05-10T16:39:14Z</time>
      </trkpt>
      <trkpt lat="44.80096" lon="5.90239">
        <ele>941</ele>
        <time>2019-05-10T16:40:14Z</time>
      </trkpt>
      <trkpt lat="44.80021" lon="5.9039">
        <ele>945</ele>
        <time>2019-05-10T16:41:14Z</time>
      </trkpt>
      <trkpt lat="44.7995" lon="5.90564">
        <ele>949</ele>
        <time>2019-05-10T16:42:14Z</time>
      </trkpt>
      <trkpt lat="44.79901" lon="5.90629">
        <ele>943</ele>
        <time>2019-05-10T16:43:14Z</time>
      </trkpt>
      <trkpt lat="44.79886" lon="5.90676">
        <ele>937</ele>
        <time>2019-05-10T16:44:14Z</time>
      </trkpt>
      <trkpt lat="44.79776" lon="5.90676">
        <ele>928</ele>
        <time>2019-05-10T16:45:14Z</time>
      </trkpt>
      <trkpt lat="44.79648" lon="5.91062">
        <ele>924</ele>
        <time>2019-05-10T16:46:14Z</time>
      </trkpt>
      <trkpt lat="44.79084" lon="5.90986">
        <ele>934</ele>
        <time>2019-05-10T16:47:14Z</time>
      </trkpt>
      <trkpt lat="44.78672" lon="5.90921">
        <ele>936</ele>
        <time>2019-05-10T16:48:14Z</time>
      </trkpt>
      <trkpt lat="44.78072" lon="5.90791">
        <ele>947</ele>
        <time>2019-05-10T16:49:14Z</time>
      </trkpt>
      <trkpt lat="44.78065" lon="5.90946">
        <ele>938</ele>
        <time>2019-05-10T16:50:14Z</time>
      </trkpt>
      <trkpt lat="44.78134" lon="5.90953">
        <ele>937</ele>
        <time>2019-05-10T16:51:14Z</time>
      </trkpt>
      <trkpt lat="44.78213" lon="5.91033">
        <ele>930</ele>
        <time>2019-05-10T16:52:14Z</time>
      </trkpt>
      <trkpt lat="44.78244" lon="5.91148">
        <ele>923</ele>
        <time>2019-05-10T16:53:14Z</time>
      </trkpt>
      <trkpt lat="44.78239" lon="5.91289">
        <ele>900</ele>
        <time>2019-05-10T16:54:14Z</time>
      </trkpt>
      <trkpt lat="44.78279" lon="5.91319">
        <ele>898</ele>
        <time>2019-05-10T16:55:14Z</time>
      </trkpt>
      <trkpt lat="44.78336" lon="5.91275">
        <ele>910</ele>
        <time>2019-05-10T16:56:14Z</time>
      </trkpt>
      <trkpt lat="44.78372" lon="5.9128">
        <ele>898</ele>
        <time>2019-05-10T16:57:14Z</time>
      </trkpt>
      <trkpt lat="44.78395" lon="5.91294">
        <ele>889</ele>
        <time>2019-05-10T16:58:14Z</time>
      </trkpt>
      <trkpt lat="44.78382" lon="5.91303">
        <ele>891</ele>
        <time>2019-05-10T16:59:14Z</time>
      </trkpt>
      <trkpt lat="44.78355" lon="5.91298">
        <ele>899</ele>
        <time>2019-05-10T17:00:14Z</time>
      </trkpt>
      <trkpt lat="44.78331" lon="5.91323">
        <ele>899</ele>
        <time>2019-05-10T17:01:14Z</time>
      </trkpt>
      <trkpt lat="44.78312" lon="5.91378">
        <ele>884</ele>
        <time>2019-05-10T17:02:14Z</time>
      </trkpt>
      <trkpt lat="44.78321" lon="5.91427">
        <ele>872</ele>
        <time>2019-05-10T17:03:14Z</time>
      </trkpt>
      <trkpt lat="44.78308" lon="5.91431">
        <ele>870</ele>
        <time>2019-05-10T17:04:14Z</time>
      </trkpt>
      <trkpt lat="44.78291" lon="5.91418">
        <ele>872</ele>
        <time>2019-05-10T17:05:14Z</time>
      </trkpt>
      <trkpt lat="44.78248" lon="5.91418">
        <ele>868</ele>
        <time>2019-05-10T17:06:14Z</time>
      </trkpt>
      <trkpt lat="44.78236" lon="5.91393">
        <ele>874</ele>
        <time>2019-05-10T17:07:14Z</time>
      </trkpt>
      <trkpt lat="44.78202" lon="5.91384">
        <ele>870</ele>
        <time>2019-05-10T17:08:14Z</time>
      </trkpt>
      <trkpt lat="44.78177" lon="5.91381">
        <ele>866</ele>
        <time>2019-05-10T17:09:14Z</time>
      </trkpt>
      <trkpt lat="44.7814" lon="5.91397">
        <ele>855</ele>
        <time>2019-05-10T17:10:14Z</time>
      </trkpt>
      <trkpt lat="44.78124" lon="5.9144">
        <ele>844</ele>
        <time>2019-05-10T17:11:14Z</time>
      </trkpt>
      <trkpt lat="44.78097" lon="5.91421">
        <ele>843</ele>
        <time>2019-05-10T17:12:14Z</time>
      </trkpt>
      <trkpt lat="44.78095" lon="5.91395">
        <ele>845</ele>
        <time>2019-05-10T17:13:14Z</time>
      </trkpt>
      <trkpt lat="44.78102" lon="5.91322">
        <ele>855</ele>
        <time>2019-05-10T17:14:14Z</time>
      </trkpt>
      <trkpt lat="44.78094" lon="5.91299">
        <ele>856</ele>
        <time>2019-05-10T17:15:14Z</time>
      </trkpt>
      <trkpt lat="44.7808" lon="5.91282">
        <ele>855</ele>
        <time>2019-05-10T17:16:14Z</time>
      </trkpt>
      <trkpt lat="44.78061" lon="5.91275">
        <ele>852</ele>
        <time>2019-05-10T17:17:14Z</time>
      </trkpt>
      <trkpt lat="44.78033" lon="5.91282">
        <ele>843</ele>
        <time>2019-05-10T17:18:14Z</time>
      </trkpt>
      <trkpt lat="44.78015" lon="5.9128">
        <ele>839</ele>
        <time>2019-05-10T17:19:14Z</time>
      </trkpt>
      <trkpt lat="44.77987" lon="5.91244">
        <ele>844</ele>
        <time>2019-05-10T17:20:14Z</time>
      </trkpt>
      <trkpt lat="44.77969" lon="5.91225">
        <ele>847</ele>
        <time>2019-05-10T17:21:14Z</time>
      </trkpt>
      <trkpt lat="44.77947" lon="5.91211">
        <ele>849</ele>
        <time>2019-05-10T17:22:14Z</time>
      </trkpt>
      <trkpt lat="44.77932" lon="5.91215">
        <ele>847</ele>
        <time>2019-05-10T17:23:14Z</time>
      </trkpt>
      <trkpt lat="44.77927" lon="5.91234">
        <ele>841</ele>
        <time>2019-05-10T17:24:14Z</time>
      </trkpt>
      <trkpt lat="44.77966" lon="5.91257">
        <ele>838</ele>
        <time>2019-05-10T17:25:14Z</time>
      </trkpt>
      <trkpt lat="44.77993" lon="5.91288">
        <ele>833</ele>
        <time>2019-05-10T17:26:14Z</time>
      </trkpt>
      <trkpt lat="44.78004" lon="5.91333">
        <ele>823</ele>
        <time>2019-05-10T17:27:14Z</time>
      </trkpt>
      <trkpt lat="44.78026" lon="5.91359">
        <ele>826</ele>
        <time>2019-05-10T17:28:14Z</time>
      </trkpt>
      <trkpt lat="44.78025" lon="5.91411">
        <ele>818</ele>
        <time>2019-05-10T17:29:14Z</time>
      </trkpt>
      <trkpt lat="44.78058" lon="5.9147">
        <ele>822</ele>
        <time>2019-05-10T17:30:14Z</time>
      </trkpt>
      <trkpt lat="44.78061" lon="5.91522">
        <ele>816</ele>
        <time>2019-05-10T17:31:14Z</time>
      </trkpt>
      <trkpt lat="44.78056" lon="5.91587">
        <ele>810</ele>
        <time>2019-05-10T17:32:14Z</time>
      </trkpt>
      <trkpt lat="44.78049" lon="5.91631">
        <ele>811</ele>
        <time>2019-05-10T17:33:14Z</time>
      </trkpt>
      <trkpt lat="44.78016" lon="5.91704">
        <ele>803</ele>
        <time>2019-05-10T17:34:14Z</time>
      </trkpt>
      <trkpt lat="44.77985" lon="5.91732">
        <ele>798</ele>
        <time>2019-05-10T17:35:14Z</time>
      </trkpt>
      <trkpt lat="44.77989" lon="5.91758">
        <ele>798</ele>
        <time>2019-05-10T17:36:14Z</time>
      </trkpt>
      <trkpt lat="44.78008" lon="5.91778">
        <ele>798</ele>
        <time>2019-05-10T17:37:14Z</time>
      </trkpt>
      <trkpt lat="44.78008" lon="5.91829">
        <ele>790</ele>
        <time>2019-05-10T17:38:14Z</time>
      </trkpt>
      <trkpt lat="44.78027" lon="5.91848">
        <ele>787</ele>
        <time>2019-05-10T17:39:14Z</time>
      </trkpt>
      <trkpt lat="44.78056" lon="5.91837">
        <ele>788</ele>
        <time>2019-05-10T17:40:14Z</time>
      </trkpt>
      <trkpt lat="44.78095" lon="5.91762">
        <ele>802</ele>
        <time>2019-05-10T17:41:14Z</time>
      </trkpt>
      <trkpt lat="44.7814" lon="5.91729">
        <ele>795</ele>
        <time>2019-05-10T17:42:14Z</time>
      </trkpt>
      <trkpt lat="44.78159" lon="5.91703">
        <ele>794</ele>
        <time>2019-05-10T17:43:14Z</time>
      </trkpt>
      <trkpt lat="44.7817" lon="5.91677">
        <ele>798</ele>
        <time>2019-05-10T17:44:14Z</time>
      </trkpt>
      <trkpt lat="44.78194" lon="5.91678">
        <ele>797</ele>
        <time>2019-05-10T17:45:14Z</time>
      </trkpt>
      <trkpt lat="44.78193" lon="5.91704">
        <ele>791</ele>
        <time>2019-05-10T17:46:14Z</time>
      </trkpt>
      <trkpt lat="44.78138" lon="5.91747">
        <ele>792</ele>
        <time>2019-05-10T17:47:14Z</time>
      </trkpt>
      <trkpt lat="44.78095" lon="5.91815">
        <ele>789</ele>
        <time>2019-05-10T17:48:14Z</time>
      </trkpt>
      <trkpt lat="44.78099" lon="5.91864">
        <ele>780</ele>
        <time>2019-05-10T17:49:14Z</time>
      </trkpt>
      <trkpt lat="44.78122" lon="5.91935">
        <ele>777</ele>
        <time>2019-05-10T17:50:14Z</time>
      </trkpt>
      <trkpt lat="44.78158" lon="5.92013">
        <ele>786</ele>
        <time>2019-05-10T17:51:14Z</time>
      </trkpt>
      <trkpt lat="44.78177" lon="5.92028">
        <ele>788</ele>
        <time>2019-05-10T17:52:14Z</time>
      </trkpt>
      <trkpt lat="44.78236" lon="5.92023">
        <ele>786</ele>
        <time>2019-05-10T17:53:14Z</time>
      </trkpt>
      <trkpt lat="44.78256" lon="5.92048">
        <ele>789</ele>
        <time>2019-05-10T17:54:14Z</time>
      </trkpt>
      <trkpt lat="44.78262" lon="5.92082">
        <ele>794</ele>
        <time>2019-05-10T17:55:14Z</time>
      </trkpt>
      <trkpt lat="44.78252" lon="5.92092">
        <ele>798</ele>
        <time>2019-05-10T17:56:14Z</time>
      </trkpt>
      <trkpt lat="44.78234" lon="5.92063">
        <ele>793</ele>
        <time>2019-05-10T17:57:14Z</time>
      </trkpt>
      <trkpt lat="44.78218" lon="5.9205">
        <ele>791</ele>
        <time>2019-05-10T17:58:14Z</time>
      </trkpt>
      <trkpt lat="44.78206" lon="5.92055">
        <ele>792</ele>
        <time>2019-05-10T17:59:14Z</time>
      </trkpt>
      <trkpt lat="44.78202" lon="5.92075">
        <ele>796</ele>
        <time>2019-05-10T18:00:14Z</time>
      </trkpt>
      <trkpt lat="44.78213" lon="5.9214">
        <ele>805</ele>
        <time>2019-05-10T18:01:14Z</time>
      </trkpt>
      <trkpt lat="44.78211" lon="5.92209">
        <ele>815</ele>
        <time>2019-05-10T18:02:14Z</time>
      </trkpt>
      <trkpt lat="44.78197" lon="5.92251">
        <ele>822</ele>
        <time>2019-05-10T18:03:14Z</time>
      </trkpt>
      <trkpt lat="44.78181" lon="5.92267">
        <ele>824</ele>
        <time>2019-05-10T18:04:14Z</time>
      </trkpt>
      <trkpt lat="44.78152" lon="5.92261">
        <ele>826</ele>
        <time>2019-05-10T18:05:14Z</time>
      </trkpt>
      <trkpt lat="44.78116" lon="5.9222">
        <ele>829</ele>
        <time>2019-05-10T18:06:14Z</time>
      </trkpt>
      <trkpt lat="44.78047" lon="5.92158">
        <ele>834</ele>
        <time>2019-05-10T18:07:14Z</time>
      </trkpt>
      <trkpt lat="44.77984" lon="5.92109">
        <ele>837</ele>
        <time>2019-05-10T18:08:14Z</time>
      </trkpt>
      <trkpt lat="44.77924" lon="5.92054">
        <ele>844</ele>
        <time>2019-05-10T18:09:14Z</time>
      </trkpt>
      <trkpt lat="44.77869" lon="5.9199">
        <ele>843</ele>
        <time>2019-05-10T18:10:14Z</time>
      </trkpt>
      <trkpt lat="44.77805" lon="5.91978">
        <ele>858</ele>
        <time>2019-05-10T18:11:14Z</time>
      </trkpt>
      <trkpt lat="44.77751" lon="5.9194">
        <ele>865</ele>
        <time>2019-05-10T18:12:14Z</time>
      </trkpt>
      <trkpt lat="44.77722" lon="5.91907">
        <ele>864</ele>
        <time>2019-05-10T18:13:14Z</time>
      </trkpt>
      <trkpt lat="44.77689" lon="5.91897">
        <ele>866</ele>
        <time>2019-05-10T18:14:14Z</time>
      </trkpt>
      <trkpt lat="44.77729" lon="5.92001">
        <ele>880</ele>
        <time>2019-05-10T18:15:14Z</time>
      </trkpt>
      <trkpt lat="44.77785" lon="5.92073">
        <ele>889</ele>
        <time>2019-05-10T18:16:14Z</time>
      </trkpt>
      <trkpt lat="44.77852" lon="5.92131">
        <ele>884</ele>
        <time>2019-05-10T18:17:14Z</time>
      </trkpt>
      <trkpt lat="44.77865" lon="5.92216">
        <ele>892</ele>
        <time>2019-05-10T18:18:14Z</time>
      </trkpt>
      <trkpt lat="44.77814" lon="5.92149">
        <ele>899</ele>
        <time>2019-05-10T18:19:14Z</time>
      </trkpt>
      <trkpt lat="44.7774" lon="5.92103">
        <ele>906</ele>
        <time>2019-05-10T18:20:14Z</time>
      </trkpt>
      <trkpt lat="44.77669" lon="5.92096">
        <ele>917</ele>
        <time>2019-05-10T18:21:14Z</time>
      </trkpt>
      <trkpt lat="44.77613" lon="5.92101">
        <ele>919</ele>
        <time>2019-05-10T18:22:14Z</time>
      </trkpt>
      <trkpt lat="44.77535" lon="5.92139">
        <ele>932</ele>
        <time>2019-05-10T18:23:14Z</time>
      </trkpt>
      <trkpt lat="44.77474" lon="5.92124">
        <ele>937</ele>
        <time>2019-05-10T18:24:14Z</time>
      </trkpt>
      <trkpt lat="44.77507" lon="5.9217">
        <ele>942</ele>
        <time>2019-05-10T18:25:14Z</time>
      </trkpt>
      <trkpt lat="44.77543" lon="5.92167">
        <ele>939</ele>
        <time>2019-05-10T18:26:14Z</time>
      </trkpt>
      <trkpt lat="44.77677" lon="5.92188">
        <ele>939</ele>
        <time>2019-05-10T18:27:14Z</time>
      </trkpt>
      <trkpt lat="44.77707" lon="5.92241">
        <ele>942</ele>
        <time>2019-05-10T18:28:14Z</time>
      </trkpt>
      <trkpt lat="44.77698" lon="5.92416">
        <ele>952</ele>
        <time>2019-05-10T18:29:14Z</time>
      </trkpt>
      <trkpt lat="44.77679" lon="5.92486">
        <ele>960</ele>
        <time>2019-05-10T18:30:14Z</time>
      </trkpt>
      <trkpt lat="44.77678" lon="5.92525">
        <ele>963</ele>
        <time>2019-05-10T18:31:14Z</time>
      </trkpt>
      <trkpt lat="44.7772" lon="5.92545">
        <ele>955</ele>
        <time>2019-05-10T18:32:14Z</time>
      </trkpt>
      <trkpt lat="44.77718" lon="5.92619">
        <ele>963</ele>
        <time>2019-05-10T18:33:14Z</time>
      </trkpt>
      <trkpt lat="44.7776" lon="5.92657">
        <ele>958</ele>
        <time>2019-05-10T18:34:14Z</time>
      </trkpt>
      <trkpt lat="44.7785" lon="5.92601">
        <ele>944</ele>
        <time>2019-05-10T18:35:14Z</time>
      </trkpt>
      <trkpt lat="44.77881" lon="5.92647">
        <ele>942</ele>
        <time>2019-05-10T18:36:14Z</time>
      </trkpt>
      <trkpt lat="44.77861" lon="5.92846">
        <ele>951</ele>
        <time>2019-05-10T18:37:14Z</time>
      </trkpt>
      <trkpt lat="44.77887" lon="5.92882">
        <ele>955</ele>
        <time>2019-05-10T18:38:14Z</time>
      </trkpt>
      <trkpt lat="44.77964" lon="5.92862">
        <ele>945</ele>
        <time>2019-05-10T18:39:14Z</time>
      </trkpt>
      <trkpt lat="44.78102" lon="5.9273">
        <ele>910</ele>
        <time>2019-05-10T18:40:14Z</time>
      </trkpt>
      <trkpt lat="44.78165" lon="5.92788">
        <ele>921</ele>
        <time>2019-05-10T18:41:14Z</time>
      </trkpt>
      <trkpt lat="44.78195" lon="5.92856">
        <ele>937</ele>
        <time>2019-05-10T18:42:14Z</time>
      </trkpt>
      <trkpt lat="44.7823" lon="5.92842">
        <ele>934</ele>
        <time>2019-05-10T18:43:14Z</time>
      </trkpt>
      <trkpt lat="44.78258" lon="5.92671">
        <ele>915</ele>
        <time>2019-05-10T18:44:14Z</time>
      </trkpt>
      <trkpt lat="44.78291" lon="5.9255">
        <ele>907</ele>
        <time>2019-05-10T18:45:14Z</time>
      </trkpt>
      <trkpt lat="44.78399" lon="5.92491">
        <ele>915</ele>
        <time>2019-05-10T18:46:14Z</time>
      </trkpt>
      <trkpt lat="44.78522" lon="5.92491">
        <ele>923</ele>
        <time>2019-05-10T18:47:14Z</time>
      </trkpt>
      <trkpt lat="44.78662" lon="5.92532">
        <ele>930</ele>
        <time>2019-05-10T18:48:14Z</time>
      </trkpt>
      <trkpt lat="44.78745" lon="5.92611">
        <ele>934</ele>
        <time>2019-05-10T18:49:14Z</time>
      </trkpt>
      <trkpt lat="44.7876" lon="5.92698">
        <ele>943</ele>
        <time>2019-05-10T18:50:14Z</time>
      </trkpt>
      <trkpt lat="44.78767" lon="5.9281">
        <ele>964</ele>
        <time>2019-05-10T18:51:14Z</time>
      </trkpt>
      <trkpt lat="44.78839" lon="5.92795">
        <ele>945</ele>
        <time>2019-05-10T18:52:14Z</time>
      </trkpt>
      <trkpt lat="44.78892" lon="5.92739">
        <ele>932</ele>
        <time>2019-05-10T18:53:14Z</time>
      </trkpt>
      <trkpt lat="44.7897" lon="5.92708">
        <ele>930</ele>
        <time>2019-05-10T18:54:14Z</time>
      </trkpt>
      <trkpt lat="44.79086" lon="5.92723">
        <ele>935</ele>
        <time>2019-05-10T18:55:14Z</time>
      </trkpt>
      <trkpt lat="44.79209" lon="5.92746">
        <ele>935</ele>
        <time>2019-05-10T18:56:14Z</time>
      </trkpt>
      <trkpt lat="44.79294" lon="5.92787">
        <ele>939</ele>
        <time>2019-05-10T18:57:14Z</time>
      </trkpt>
      <trkpt lat="44.7952" lon="5.92764">
        <ele>920</ele>
        <time>2019-05-10T18:58:14Z</time>
      </trkpt>
      <trkpt lat="44.79622" lon="5.92828">
        <ele>922</ele>
        <time>2019-05-10T18:59:14Z</time>
      </trkpt>
      <trkpt lat="44.79723" lon="5.92917">
        <ele>922</ele>
        <time>2019-05-10T19:00:14Z</time>
      </trkpt>
      <trkpt lat="44.79834" lon="5.92968">
        <ele>919</ele>
        <time>2019-05-10T19:01:14Z</time>
      </trkpt>
      <trkpt lat="44.80156" lon="5.93096">
        <ele>911</ele>
        <time>2019-05-10T19:02:14Z</time>
      </trkpt>
      <trkpt lat="44.80257" lon="5.93088">
        <ele>912</ele>
        <time>2019-05-10T19:03:14Z</time>
      </trkpt>
      <trkpt lat="44.80322" lon="5.93009">
        <ele>906</ele>
        <time>2019-05-10T19:04:14Z</time>
      </trkpt>
      <trkpt lat="44.80353" lon="5.92915">
        <ele>895</ele>
        <time>2019-05-10T19:05:14Z</time>
      </trkpt>
      <trkpt lat="44.80458" lon="5.92884">
        <ele>893</ele>
        <time>2019-05-10T19:06:14Z</time>
      </trkpt>
      <trkpt lat="44.80497" lon="5.93017">
        <ele>907</ele>
        <time>2019-05-10T19:07:14Z</time>
      </trkpt>
      <trkpt lat="44.80541" lon="5.93029">
        <ele>906</ele>
        <time>2019-05-10T19:08:14Z</time>
      </trkpt>
      <trkpt lat="44.80552" lon="5.93065">
        <ele>904</ele>
        <time>2019-05-10T19:09:14Z</time>
      </trkpt>
      <trkpt lat="44.8059" lon="5.93047">
        <ele>902</ele>
        <time>2019-05-10T19:10:14Z</time>
      </trkpt>
      <trkpt lat="44.80626" lon="5.93023">
        <ele>904</ele>
        <time>2019-05-10T19:11:14Z</time>
      </trkpt>
      <trkpt lat="44.80684" lon="5.93056">
        <ele>889</ele>
        <time>2019-05-10T19:12:14Z</time>
      </trkpt>
      <trkpt lat="44.80716" lon="5.93039">
        <ele>886</ele>
        <time>2019-05-10T19:13:14Z</time>
      </trkpt>
      <trkpt lat="44.80763" lon="5.92979">
        <ele>885</ele>
        <time>2019-05-10T19:14:14Z</time>
      </trkpt>
      <trkpt lat="44.80787" lon="5.92936">
        <ele>885</ele>
        <time>2019-05-10T19:15:14Z</time>
      </trkpt>
      <trkpt lat="44.80818" lon="5.92903">
        <ele>877</ele>
        <time>2019-05-10T19:16:14Z</time>
      </trkpt>
      <trkpt lat="44.80842" lon="5.92873">
        <ele>869</ele>
        <time>2019-05-10T19:17:14Z</time>
      </trkpt>
      <trkpt lat="44.80833" lon="5.92835">
        <ele>871</ele>
        <time>2019-05-10T19:18:14Z</time>
      </trkpt>
      <trkpt lat="44.8085" lon="5.92841">
        <ele>866</ele>
        <time>2019-05-10T19:19:14Z</time>
      </trkpt>
      <trkpt lat="44.80856" lon="5.92872">
        <ele>865</ele>
        <time>2019-05-10T19:20:14Z</time>
      </trkpt>
      <trkpt lat="44.80881" lon="5.92889">
        <ele>856</ele>
        <time>2019-05-10T19:21:14Z</time>
      </trkpt>
      <trkpt lat="44.80877" lon="5.92903">
        <ele>857</ele>
        <time>2019-05-10T19:22:14Z</time>
      </trkpt>
      <trkpt lat="44.80847" lon="5.92913">
        <ele>868</ele>
        <time>2019-05-10T19:23:14Z</time>
      </trkpt>
      <trkpt lat="44.80828" lon="5.92923">
        <ele>874</ele>
        <time>2019-05-10T19:24:14Z</time>
      </trkpt>
      <trkpt lat="44.80819" lon="5.9295">
        <ele>872</ele>
        <time>2019-05-10T19:25:14Z</time>
      </trkpt>
      <trkpt lat="44.80818" lon="5.92993">
        <ele>864</ele>
        <time>2019-05-10T19:26:14Z</time>
      </trkpt>
      <trkpt lat="44.8082" lon="5.93031">
        <ele>858</ele>
        <time>2019-05-10T19:27:14Z</time>
      </trkpt>
      <trkpt lat="44.80809" lon="5.93072">
        <ele>856</ele>
        <time>2019-05-10T19:28:14Z</time>
      </trkpt>
      <trkpt lat="44.80777" lon="5.93088">
        <ele>863</ele>
        <time>2019-05-10T19:29:14Z</time>
      </trkpt>
      <trkpt lat="44.80767" lon="5.93115">
        <ele>861</ele>
        <time>2019-05-10T19:30:14Z</time>
      </trkpt>
      <trkpt lat="44.8077" lon="5.93157">
        <ele>854</ele>
        <time>2019-05-10T19:31:14Z</time>
      </trkpt>
      <trkpt lat="44.80747" lon="5.9322">
        <ele>849</ele>
        <time>2019-05-10T19:32:14Z</time>
      </trkpt>
      <trkpt lat="44.80701" lon="5.93241">
        <ele>853</ele>
        <time>2019-05-10T19:33:14Z</time>
      </trkpt>
      <trkpt lat="44.80665" lon="5.93294">
        <ele>859</ele>
        <time>2019-05-10T19:34:14Z</time>
      </trkpt>
      <trkpt lat="44.80673" lon="5.93316">
        <ele>858</ele>
        <time>2019-05-10T19:35:14Z</time>
      </trkpt>
      <trkpt lat="44.80717" lon="5.93328">
        <ele>847</ele>
        <time>2019-05-10T19:36:14Z</time>
      </trkpt>
      <trkpt lat="44.80768" lon="5.93402">
        <ele>838</ele>
        <time>2019-05-10T19:37:14Z</time>
      </trkpt>
      <trkpt lat="44.80793" lon="5.93464">
        <ele>830</ele>
        <time>2019-05-10T19:38:14Z</time>
      </trkpt>
      <trkpt lat="44.80778" lon="5.935">
        <ele>834</ele>
        <time>2019-05-10T19:39:14Z</time>
      </trkpt>
      <trkpt lat="44.80791" lon="5.93566">
        <ele>826</ele>
        <time>2019-05-10T19:40:14Z</time>
      </trkpt>
      <trkpt lat="44.8075" lon="5.93728">
        <ele>824</ele>
        <time>2019-05-10T19:41:14Z</time>
      </trkpt>
      <trkpt lat="44.80767" lon="5.93806">
        <ele>808</ele>
        <time>2019-05-10T19:42:14Z</time>
      </trkpt>
      <trkpt lat="44.80771" lon="5.93849">
        <ele>800</ele>
        <time>2019-05-10T19:43:14Z</time>
      </trkpt>
      <trkpt lat="44.80761" lon="5.93883">
        <ele>799</ele>
        <time>2019-05-10T19:44:14Z</time>
      </trkpt>
      <trkpt lat="44.80734" lon="5.93894">
        <ele>806</ele>
        <time>2019-05-10T19:45:14Z</time>
      </trkpt>
      <trkpt lat="44.80715" lon="5.93883">
        <ele>812</ele>
        <time>2019-05-10T19:46:14Z</time>
      </trkpt>
      <trkpt lat="44.80694" lon="5.9388">
        <ele>818</ele>
        <time>2019-05-10T19:47:14Z</time>
      </trkpt>
      <trkpt lat="44.80677" lon="5.93893">
        <ele>820</ele>
        <time>2019-05-10T19:48:14Z</time>
      </trkpt>
      <trkpt lat="44.80679" lon="5.9394">
        <ele>813</ele>
        <time>2019-05-10T19:49:14Z</time>
      </trkpt>
      <trkpt lat="44.80704" lon="5.93962">
        <ele>801</ele>
        <time>2019-05-10T19:50:14Z</time>
      </trkpt>
      <trkpt lat="44.80706" lon="5.9399">
        <ele>795</ele>
        <time>2019-05-10T19:51:14Z</time>
      </trkpt>
      <trkpt lat="44.80694" lon="5.94027">
        <ele>791</ele>
        <time>2019-05-10T19:52:14Z</time>
      </trkpt>
      <trkpt lat="44.80637" lon="5.94054">
        <ele>800</ele>
        <time>2019-05-10T19:53:14Z</time>
      </trkpt>
      <trkpt lat="44.80623" lon="5.94077">
        <ele>796</ele>
        <time>2019-05-10T19:54:14Z</time>
      </trkpt>
      <trkpt lat="44.80518" lon="5.94136">
        <ele>807</ele>
        <time>2019-05-10T19:55:14Z</time>
      </trkpt>
      <trkpt lat="44.80439" lon="5.94283">
        <ele>815</ele>
        <time>2019-05-10T19:56:14Z</time>
      </trkpt>
      <trkpt lat="44.80421" lon="5.94288">
        <ele>823</ele>
        <time>2019-05-10T19:57:14Z</time>
      </trkpt>
      <trkpt lat="44.80422" lon="5.94357">
        <ele>817</ele>
        <time>2019-05-10T19:58:14Z</time>
      </trkpt>
      <trkpt lat="44.80417" lon="5.94389">
        <ele>821</ele>
        <time>2019-05-10T19:59:14Z</time>
      </trkpt>
      <trkpt lat="44.80426" lon="5.9449">
        <ele>817</ele>
        <time>2019-05-10T20:00:14Z</time>
      </trkpt>
      <trkpt lat="44.80413" lon="5.94533">
        <ele>818</ele>
        <time>2019-05-10T20:01:14Z</time>
      </trkpt>
      <trkpt lat="44.80377" lon="5.94581">
        <ele>824</ele>
        <time>2019-05-10T20:02:14Z</time>
      </trkpt>
      <trkpt lat="44.8032" lon="5.9462">
        <ele>833</ele>
        <time>2019-05-10T20:03:14Z</time>
      </trkpt>
      <trkpt lat="44.80277" lon="5.94635">
        <ele>838</ele>
        <time>2019-05-10T20:04:14Z</time>
      </trkpt>
      <trkpt lat="44.80237" lon="5.94633">
        <ele>845</ele>
        <time>2019-05-10T20:05:14Z</time>
      </trkpt>
      <trkpt lat="44.80203" lon="5.94619">
        <ele>850</ele>
        <time>2019-05-10T20:06:14Z</time>
      </trkpt>
      <trkpt lat="44.8016" lon="5.94619">
        <ele>850</ele>
        <time>2019-05-10T20:07:14Z</time>
      </trkpt>
      <trkpt lat="44.80132" lon="5.94616">
        <ele>846</ele>
        <time>2019-05-10T20:08:14Z</time>
      </trkpt>
      <trkpt lat="44.80075" lon="5.9457">
        <ele>854</ele>
        <time>2019-05-10T20:09:14Z</time>
      </trkpt>
      <trkpt lat="44.80044" lon="5.94549">
        <ele>862</ele>
        <time>2019-05-10T20:10:14Z</time>
      </trkpt>
      <trkpt lat="44.79984" lon="5.94533">
        <ele>867</ele>
        <time>2019-05-10T20:11:14Z</time>
      </trkpt>
      <trkpt lat="44.79939" lon="5.94531">
        <ele>871</ele>
        <time>2019-05-10T20:12:14Z</time>
      </trkpt>
      <trkpt lat="44.79898" lon="5.94555">
        <ele>869</ele>
        <time>2019-05-10T20:13:14Z</time>
      </trkpt>
      <trkpt lat="44.79864" lon="5.94597">
        <ele>874</ele>
        <time>2019-05-10T20:14:14Z</time>
      </trkpt>
      <trkpt lat="44.7987" lon="5.9462">
        <ele>875</ele>
        <time>2019-05-10T20:15:14Z</time>
      </trkpt>
      <trkpt lat="44.79945" lon="5.94718">
        <ele>851</ele>
        <time>2019-05-10T20:16:14Z</time>
      </trkpt>
      <trkpt lat="44.79947" lon="5.94755">
        <ele>852</ele>
        <time>2019-05-10T20:17:14Z</time>
      </trkpt>
      <trkpt lat="44.79896" lon="5.94862">
        <ele>865</ele>
        <time>2019-05-10T20:18:14Z</time>
      </trkpt>
      <trkpt lat="44.79827" lon="5.95038">
        <ele>852</ele>
        <time>2019-05-10T20:19:14Z</time>
      </trkpt>
      <trkpt lat="44.79768" lon="5.95204">
        <ele>852</ele>
        <time>2019-05-10T20:20:14Z</time>
      </trkpt>
      <trkpt lat="44.79742" lon="5.95367">
        <ele>850</ele>
        <time>2019-05-10T20:21:14Z</time>
      </trkpt>
      <trkpt lat="44.79824" lon="5.95728">
        <ele>814</ele>
        <time>2019-05-10T20:22:14Z</time>
      </trkpt>
      <trkpt lat="44.79791" lon="5.95858">
        <ele>801</ele>
        <time>2019-05-10T20:23:14Z</time>
      </trkpt>
      <trkpt lat="44.79753" lon="5.95861">
        <ele>806</ele>
        <time>2019-05-10T20:24:14Z</time>
      </trkpt>
      <trkpt lat="44.79676" lon="5.95818">
        <ele>823</ele>
        <time>2019-05-10T20:25:14Z</time>
      </trkpt>
      <trkpt lat="44.79583" lon="5.95832">
        <ele>828</ele>
        <time>2019-05-10T20:26:14Z</time>
      </trkpt>
      <trkpt lat="44.7953" lon="5.9593">
        <ele>807</ele>
        <time>2019-05-10T20:27:14Z</time>
      </trkpt>
      <trkpt lat="44.79468" lon="5.95973">
        <ele>816</ele>
        <time>2019-05-10T20:28:14Z</time>
      </trkpt>
      <trkpt lat="44.79496" lon="5.96071">
        <ele>796</ele>
        <time>2019-05-10T20:29:14Z</time>
      </trkpt>
      <trkpt lat="44.79476" lon="5.96226">
        <ele>802</ele>
        <time>2019-05-10T20:30:14Z</time>
      </trkpt>
      <trkpt lat="44.79473" lon="5.96413">
        <ele>797</ele>
        <time>2019-05-10T20:31:14Z</time>
      </trkpt>
      <trkpt lat="44.79453" lon="5.96511">
        <ele>798</ele>
        <time>2019-05-10T20:32:14Z</time>
      </trkpt>
      <trkpt lat="44.79422" lon="5.96634">
        <ele>800</ele>
        <time>2019-05-10T20:33:14Z</time>
      </trkpt>
      <trkpt lat="44.79433" lon="5.96667">
        <ele>794</ele>
        <time>2019-05-10T20:34:14Z</time>
      </trkpt>
      <trkpt lat="44.79426" lon="5.96711">
        <ele>796</ele>
        <time>2019-05-10T20:35:14Z</time>
      </trkpt>
      <trkpt lat="44.79431" lon="5.9676">
        <ele>793</ele>
        <time>2019-05-10T20:36:14Z</time>
      </trkpt>
      <trkpt lat="44.79424" lon="5.96797">
        <ele>796</ele>
        <time>2019-05-10T20:37:14Z</time>
      </trkpt>
      <trkpt lat="44.79442" lon="5.96825">
        <ele>791</ele>
        <time>2019-05-10T20:38:14Z</time>
      </trkpt>
      <trkpt lat="44.7947" lon="5.96836">
        <ele>783</ele>
        <time>2019-05-10T20:39:14Z</time>
      </trkpt>
      <trkpt lat="44.79514" lon="5.96823">
        <ele>778</ele>
        <time>2019-05-10T20:40:14Z</time>
      </trkpt>
      <trkpt lat="44.79535" lon="5.96841">
        <ele>786</ele>
        <time>2019-05-10T20:41:14Z</time>
      </trkpt>
      <trkpt lat="44.79573" lon="5.96904">
        <ele>799</ele>
        <time>2019-05-10T20:42:14Z</time>
      </trkpt>
      <trkpt lat="44.79564" lon="5.96926">
        <ele>799</ele>
        <time>2019-05-10T20:43:14Z</time>
      </trkpt>
      <trkpt lat="44.79541" lon="5.96929">
        <ele>794</ele>
        <time>2019-05-10T20:44:14Z</time>
      </trkpt>
      <trkpt lat="44.79512" lon="5.9692">
        <ele>783</ele>
        <time>2019-05-10T20:45:14Z</time>
      </trkpt>
      <trkpt lat="44.795" lon="5.96937">
        <ele>785</ele>
        <time>2019-05-10T20:46:14Z</time>
      </trkpt>
      <trkpt lat="44.79482" lon="5.97035">
        <ele>808</ele>
        <time>2019-05-10T20:47:14Z</time>
      </trkpt>
      <trkpt lat="44.79461" lon="5.97054">
        <ele>805</ele>
        <time>2019-05-10T20:48:14Z</time>
      </trkpt>
      <trkpt lat="44.79426" lon="5.97071">
        <ele>796</ele>
        <time>2019-05-10T20:49:14Z</time>
      </trkpt>
      <trkpt lat="44.79409" lon="5.97097">
        <ele>796</ele>
        <time>2019-05-10T20:50:14Z</time>
      </trkpt>
      <trkpt lat="44.79404" lon="5.97136">
        <ele>797</ele>
        <time>2019-05-10T20:51:14Z</time>
      </trkpt>
      <trkpt lat="44.79422" lon="5.97167">
        <ele>798</ele>
        <time>2019-05-10T20:52:14Z</time>
      </trkpt>
      <trkpt lat="44.79482" lon="5.972">
        <ele>807</ele>
        <time>2019-05-10T20:53:14Z</time>
      </trkpt>
      <trkpt lat="44.79519" lon="5.97266">
        <ele>808</ele>
        <time>2019-05-10T20:54:14Z</time>
      </trkpt>
      <trkpt lat="44.79527" lon="5.97314">
        <ele>809</ele>
        <time>2019-05-10T20:55:14Z</time>
      </trkpt>
      <trkpt lat="44.79521" lon="5.97383">
        <ele>810</ele>
        <time>2019-05-10T20:56:14Z</time>
      </trkpt>
      <trkpt lat="44.79503" lon="5.97455">
        <ele>808</ele>
        <time>2019-05-10T20:57:14Z</time>
      </trkpt>
      <trkpt lat="44.79493" lon="5.97511">
        <ele>805</ele>
        <time>2019-05-10T20:58:14Z</time>
      </trkpt>
      <trkpt lat="44.79478" lon="5.97552">
        <ele>803</ele>
        <time>2019-05-10T20:59:14Z</time>
      </trkpt>
      <trkpt lat="44.79453" lon="5.97584">
        <ele>800</ele>
        <time>2019-05-10T21:00:14Z</time>
      </trkpt>
      <trkpt lat="44.7943" lon="5.97601">
        <ele>798</ele>
        <time>2019-05-10T21:01:14Z</time>
      </trkpt>
      <trkpt lat="44.79337" lon="5.97732">
        <ele>791</ele>
        <time>2019-05-10T21:02:14Z</time>
      </trkpt>
      <trkpt lat="44.7931" lon="5.97782">
        <ele>791</ele>
        <time>2019-05-10T21:03:14Z</time>
      </trkpt>
      <trkpt lat="44.79256" lon="5.97893">
        <ele>788</ele>
        <time>2019-05-10T21:04:14Z</time>
      </trkpt>
      <trkpt lat="44.79245" lon="5.97954">
        <ele>790</ele>
        <time>2019-05-10T21:05:14Z</time>
      </trkpt>
      <trkpt lat="44.79438" lon="5.97755">
        <ele>826</ele>
        <time>2019-05-10T21:06:14Z</time>
      </trkpt>
      <trkpt lat="44.79694" lon="5.97772">
        <ele>852</ele>
        <time>2019-05-10T21:07:14Z</time>
      </trkpt>
      <trkpt lat="44.79792" lon="5.97497">
        <ele>872</ele>
        <time>2019-05-10T21:08:14Z</time>
      </trkpt>
      <trkpt lat="44.80023" lon="5.97412">
        <ele>908</ele>
        <time>2019-05-10T21:09:14Z</time>
      </trkpt>
      <trkpt lat="44.79962" lon="5.97068">
        <ele>907</ele>
        <time>2019-05-10T21:10:14Z</time>
      </trkpt>
      <trkpt lat="44.80127" lon="5.96596">
        <ele>921</ele>
        <time>2019-05-10T21:11:14Z</time>
      </trkpt>
      <trkpt lat="44.80285" lon="5.96159">
        <ele>954</ele>
        <time>2019-05-10T21:12:14Z</time>
      </trkpt>
      <trkpt lat="44.80346" lon="5.95738">
        <ele>934</ele>
        <time>2019-05-10T21:13:14Z</time>
      </trkpt>
      <trkpt lat="44.80553" lon="5.95498">
        <ele>925</ele>
        <time>2019-05-10T21:14:14Z</time>
      </trkpt>
      <trkpt lat="44.80675" lon="5.95317">
        <ele>909</ele>
        <time>2019-05-10T21:15:14Z</time>
      </trkpt>
      <trkpt lat="44.80821" lon="5.95086">
        <ele>923</ele>
        <time>2019-05-10T21:16:14Z</time>
      </trkpt>
      <trkpt lat="44.81121" lon="5.9496">
        <ele>936</ele>
        <time>2019-05-10T21:17:14Z</time>
      </trkpt>
      <trkpt lat="44.8137" lon="5.94729">
        <ele>911</ele>
        <time>2019-05-10T21:18:14Z</time>
      </trkpt>
      <trkpt lat="44.81723" lon="5.94814">
        <ele>943</ele>
        <time>2019-05-10T21:19:14Z</time>
      </trkpt>
      <trkpt lat="44.8205" lon="5.9468">
        <ele>920</ele>
        <time>2019-05-10T21:20:14Z</time>
      </trkpt>
      <trkpt lat="44.82292" lon="5.95227">
        <ele>897</ele>
        <time>2019-05-10T21:21:14Z</time>
      </trkpt>
      <trkpt lat="44.82298" lon="5.94876">
        <ele>889</ele>
        <time>2019-05-10T21:22:14Z</time>
      </trkpt>
      <trkpt lat="44.82345" lon="5.94737">
        <ele>894</ele>
        <time>2019-05-10T21:23:14Z</time>
      </trkpt>
      <trkpt lat="44.82444" lon="5.9453">
        <ele>899</ele>
        <time>2019-05-10T21:24:14Z</time>
      </trkpt>
      <trkpt lat="44.82487" lon="5.9447">
        <ele>906</ele>
        <time>2019-05-10T21:25:14Z</time>
      </trkpt>
      <trkpt lat="44.8249" lon="5.94403">
        <ele>906</ele>
        <time>2019-05-10T21:26:14Z</time>
      </trkpt>
      <trkpt lat="44.82483" lon="5.94318">
        <ele>904</ele>
        <time>2019-05-10T21:27:14Z</time>
      </trkpt>
      <trkpt lat="44.82533" lon="5.94239">
        <ele>910</ele>
        <time>2019-05-10T21:28:14Z</time>
      </trkpt>
      <trkpt lat="44.82627" lon="5.94178">
        <ele>927</ele>
        <time>2019-05-10T21:29:14Z</time>
      </trkpt>
      <trkpt lat="44.82692" lon="5.94108">
        <ele>936</ele>
        <time>2019-05-10T21:30:14Z</time>
      </trkpt>
      <trkpt lat="44.82761" lon="5.93929">
        <ele>940</ele>
        <time>2019-05-10T21:31:14Z</time>
      </trkpt>
      <trkpt lat="44.82772" lon="5.93738">
        <ele>949</ele>
        <time>2019-05-10T21:32:14Z</time>
      </trkpt>
      <trkpt lat="44.82772" lon="5.9352">
        <ele>947</ele>
        <time>2019-05-10T21:33:14Z</time>
      </trkpt>
      <trkpt lat="44.82901" lon="5.93489">
        <ele>958</ele>
        <time>2019-05-10T21:34:14Z</time>
      </trkpt>
      <trkpt lat="44.82932" lon="5.93538">
        <ele>963</ele>
        <time>2019-05-10T21:35:14Z</time>
      </trkpt>
      <trkpt lat="44.82924" lon="5.93628">
        <ele>973</ele>
        <time>2019-05-10T21:36:14Z</time>
      </trkpt>
      <trkpt lat="44.82945" lon="5.93765">
        <ele>982</ele>
        <time>2019-05-10T21:37:14Z</time>
      </trkpt>
      <trkpt lat="44.83014" lon="5.93926">
        <ele>998</ele>
        <time>2019-05-10T21:38:14Z</time>
      </trkpt>
      <trkpt lat="44.83097" lon="5.94011">
        <ele>1002</ele>
        <time>2019-05-10T21:39:14Z</time>
      </trkpt>
      <trkpt lat="44.83151" lon="5.94078">
        <ele>1012</ele>
        <time>2019-05-10T21:40:14Z</time>
      </trkpt>
      <trkpt lat="44.83322" lon="5.94033">
        <ele>1000</ele>
        <time>2019-05-10T21:41:14Z</time>
      </trkpt>
      <trkpt lat="44.83365" lon="5.93973">
        <ele>1003</ele>
        <time>2019-05-10T21:42:14Z</time>
      </trkpt>
      <trkpt lat="44.83406" lon="5.93959">
        <ele>1013</ele>
        <time>2019-05-10T21:43:14Z</time>
      </trkpt>
      <trkpt lat="44.83398" lon="5.93921">
        <ele>1016</ele>
        <time>2019-05-10T21:44:14Z</time>
      </trkpt>
      <trkpt lat="44.83306" lon="5.93854">
        <ele>1008</ele>
        <time>2019-05-10T21:45:14Z</time>
      </trkpt>
      <trkpt lat="44.83265" lon="5.93834">
        <ele>1003</ele>
        <time>2019-05-10T21:46:14Z</time>
      </trkpt>
      <trkpt lat="44.83249" lon="5.93805">
        <ele>1003</ele>
        <time>2019-05-10T21:47:14Z</time>
      </trkpt>
      <trkpt lat="44.83239" lon="5.93708">
        <ele>1005</ele>
        <time>2019-05-10T21:48:14Z</time>
      </trkpt>
      <trkpt lat="44.83266" lon="5.93627">
        <ele>1005</ele>
        <time>2019-05-10T21:49:14Z</time>
      </trkpt>
      <trkpt lat="44.83353" lon="5.93488">
        <ele>1015</ele>
        <time>2019-05-10T21:50:14Z</time>
      </trkpt>
      <trkpt lat="44.83358" lon="5.93448">
        <ele>1015</ele>
        <time>2019-05-10T21:51:14Z</time>
      </trkpt>
      <trkpt lat="44.83322" lon="5.93363">
        <ele>1007</ele>
        <time>2019-05-10T21:52:14Z</time>
      </trkpt>
      <trkpt lat="44.8332" lon="5.93304">
        <ele>1010</ele>
        <time>2019-05-10T21:53:14Z</time>
      </trkpt>
      <trkpt lat="44.83326" lon="5.93233">
        <ele>1017</ele>
        <time>2019-05-10T21:54:14Z</time>
      </trkpt>
      <trkpt lat="44.83317" lon="5.93161">
        <ele>1021</ele>
        <time>2019-05-10T21:55:14Z</time>
      </trkpt>
      <trkpt lat="44.83278" lon="5.93103">
        <ele>1016</ele>
        <time>2019-05-10T21:56:14Z</time>
      </trkpt>
      <trkpt lat="44.83244" lon="5.93017">
        <ele>1019</ele>
        <time>2019-05-10T21:57:14Z</time>
      </trkpt>
      <trkpt lat="44.83228" lon="5.9295">
        <ele>1019</ele>
        <time>2019-05-10T21:58:14Z</time>
      </trkpt>
      <trkpt lat="44.83235" lon="5.92881">
        <ele>1022</ele>
        <time>2019-05-10T21:59:14Z</time>
      </trkpt>
      <trkpt lat="44.83266" lon="5.92802">
        <ele>1029</ele>
        <time>2019-05-10T22:00:14Z</time>
      </trkpt>
      <trkpt lat="44.83324" lon="5.92697">
        <ele>1036</ele>
        <time>2019-05-10T22:01:14Z</time>
      </trkpt>
      <trkpt lat="44.8337" lon="5.92631">
        <ele>1038</ele>
        <time>2019-05-10T22:02:14Z</time>
      </trkpt>
      <trkpt lat="44.83421" lon="5.92584">
        <ele>1042</ele>
        <time>2019-05-10T22:03:14Z</time>
      </trkpt>
      <trkpt lat="44.83468" lon="5.92571">
        <ele>1045</ele>
        <time>2019-05-10T22:04:14Z</time>
      </trkpt>
      <trkpt lat="44.83521" lon="5.92603">
        <ele>1061</ele>
        <time>2019-05-10T22:05:14Z</time>
      </trkpt>
      <trkpt lat="44.83553" lon="5.92575">
        <ele>1063</ele>
        <time>2019-05-10T22:06:14Z</time>
      </trkpt>
      <trkpt lat="44.83569" lon="5.92515">
        <ele>1055</ele>
        <time>2019-05-10T22:07:14Z</time>
      </trkpt>
      <trkpt lat="44.83748" lon="5.92452">
        <ele>1068</ele>
        <time>2019-05-10T22:08:14Z</time>
      </trkpt>
      <trkpt lat="44.8382" lon="5.92468">
        <ele>1078</ele>
        <time>2019-05-10T22:09:14Z</time>
      </trkpt>
      <trkpt lat="44.8397" lon="5.92405">
        <ele>1086</ele>
        <time>2019-05-10T22:10:14Z</time>
      </trkpt>
      <trkpt lat="44.84089" lon="5.92365">
        <ele>1096</ele>
        <time>2019-05-10T22:11:14Z</time>
      </trkpt>
      <trkpt lat="44.84144" lon="5.92336">
        <ele>1096</ele>
        <time>2019-05-10T22:12:14Z</time>
      </trkpt>
      <trkpt lat="44.84164" lon="5.92284">
        <ele>1086</ele>
        <time>2019-05-10T22:13:14Z</time>
      </trkpt>
      <trkpt lat="44.84277" lon="5.92214">
        <ele>1096</ele>
        <time>2019-05-10T22:14:14Z</time>
      </trkpt>
      <trkpt lat="44.84336" lon="5.92243">
        <ele>1109</ele>
        <time>2019-05-10T22:15:14Z</time>
      </trkpt>
      <trkpt lat="44.84331" lon="5.92188">
        <ele>1110</ele>
        <time>2019-05-10T22:16:14Z</time>
      </trkpt>
      <trkpt lat="44.84295" lon="5.92109">
        <ele>1115</ele>
        <time>2019-05-10T22:17:14Z</time>
      </trkpt>
      <trkpt lat="44.84191" lon="5.92035">
        <ele>1104</ele>
        <time>2019-05-10T22:18:14Z</time>
      </trkpt>
      <trkpt lat="44.84168" lon="5.92006">
        <ele>1105</ele>
        <time>2019-05-10T22:19:14Z</time>
      </trkpt>
      <trkpt lat="44.84158" lon="5.91958">
        <ele>1105</ele>
        <time>2019-05-10T22:20:14Z</time>
      </trkpt>
      <trkpt lat="44.84175" lon="5.91881">
        <ele>1114</ele>
        <time>2019-05-10T22:21:14Z</time>
      </trkpt>
      <trkpt lat="44.84194" lon="5.91769">
        <ele>1122</ele>
        <time>2019-05-10T22:22:14Z</time>
      </trkpt>
      <trkpt lat="44.84179" lon="5.91693">
        <ele>1114</ele>
        <time>2019-05-10T22:23:14Z</time>
      </trkpt>
      <trkpt lat="44.84192" lon="5.91629">
        <ele>1101</ele>
        <time>2019-05-10T22:24:14Z</time>
      </trkpt>
      <trkpt lat="44.84302" lon="5.91666">
        <ele>1128</ele>
        <time>2019-05-10T22:25:14Z</time>
      </trkpt>
      <trkpt lat="44.84435" lon="5.91611">
        <ele>1127</ele>
        <time>2019-05-10T22:26:14Z</time>
      </trkpt>
      <trkpt lat="44.84577" lon="5.91508">
        <ele>1131</ele>
        <time>2019-05-10T22:27:14Z</time>
      </trkpt>
      <trkpt lat="44.84654" lon="5.91377">
        <ele>1126</ele>
        <time>2019-05-10T22:28:14Z</time>
      </trkpt>
      <trkpt lat="44.84743" lon="5.91301">
        <ele>1129</ele>
        <time>2019-05-10T22:29:14Z</time>
      </trkpt>
      <trkpt lat="44.84906" lon="5.91295">
        <ele>1136</ele>
        <time>2019-05-10T22:30:14Z</time>
      </trkpt>
      <trkpt lat="44.84988" lon="5.91119">
        <ele>1138</ele>
        <time>2019-05-10T22:31:14Z</time>
      </trkpt>
      <trkpt lat="44.85095" lon="5.91013">
        <ele>1151</ele>
        <time>2019-05-10T22:32:14Z</time>
      </trkpt>
      <trkpt lat="44.85132" lon="5.90886">
        <ele>1166</ele>
        <time>2019-05-10T22:33:14Z</time>
      </trkpt>
      <trkpt lat="44.85227" lon="5.90779">
        <ele>1180</ele>
        <time>2019-05-10T22:34:14Z</time>
      </trkpt>
      <trkpt lat="44.85321" lon="5.90685">
        <ele>1193</ele>
        <time>2019-05-10T22:35:14Z</time>
      </trkpt>
      <trkpt lat="44.85425" lon="5.90634">
        <ele>1201</ele>
        <time>2019-05-10T22:36:14Z</time>
      </trkpt>
      <trkpt lat="44.85534" lon="5.90461">
        <ele>1212</ele>
        <time>2019-05-10T22:37:14Z</time>
      </trkpt>
      <trkpt lat="44.85689" lon="5.90452">
        <ele>1203</ele>
        <time>2019-05-10T22:38:14Z</time>
      </trkpt>
      <trkpt lat="44.85861" lon="5.90403">
        <ele>1197</ele>
        <time>2019-05-10T22:39:14Z</time>
      </trkpt>
      <trkpt lat="44.8598" lon="5.90361">
        <ele>1194</ele>
        <time>2019-05-10T22:40:14Z</time>
      </trkpt>
      <trkpt lat="44.86057" lon="5.90312">
        <ele>1187</ele>
        <time>2019-05-10T22:41:14Z</time>
      </trkpt>
      <trkpt lat="44.86106" lon="5.90427">
        <ele>1199</ele>
        <time>2019-05-10T22:42:14Z</time>
      </trkpt>
      <trkpt lat="44.86106" lon="5.90519">
        <ele>1213</ele>
        <time>2019-05-10T22:43:14Z</time>
      </trkpt>
      <trkpt lat="44.86195" lon="5.90649">
        <ele>1208</ele>
        <time>2019-05-10T22:44:14Z</time>
      </trkpt>
      <trkpt lat="44.86244" lon="5.90849">
        <ele>1221</ele>
        <time>2019-05-10T22:45:14Z</time>
      </trkpt>
      <trkpt lat="44.86276" lon="5.90959">
        <ele>1227</ele>
        <time>2019-05-10T22:46:14Z</time>
      </trkpt>
      <trkpt lat="44.86334" lon="5.9104">
        <ele>1216</ele>
        <time>2019-05-10T22:47:14Z</time>
      </trkpt>
      <trkpt lat="44.86408" lon="5.91268">
        <ele>1219</ele>
        <time>2019-05-10T22:48:14Z</time>
      </trkpt>
      <trkpt lat="44.86457" lon="5.91396">
        <ele>1224</ele>
        <time>2019-05-10T22:49:14Z</time>
      </trkpt>
      <trkpt lat="44.86552" lon="5.91538">
        <ele>1220</ele>
        <time>2019-05-10T22:50:14Z</time>
      </trkpt>
      <trkpt lat="44.86636" lon="5.91608">
        <ele>1221</ele>
        <time>2019-05-10T22:51:14Z</time>
      </trkpt>
      <trkpt lat="44.86763" lon="5.91611">
        <ele>1226</ele>
        <time>2019-05-10T22:52:14Z</time>
      </trkpt>
      <trkpt lat="44.86739" lon="5.91568">
        <ele>1224</ele>
        <time>2019-05-10T22:53:14Z</time>
      </trkpt>
      <trkpt lat="44.86666" lon="5.91499">
        <ele>1215</ele>
        <time>2019-05-10T22:54:14Z</time>
      </trkpt>
      <trkpt lat="44.86625" lon="5.91429">
        <ele>1214</ele>
        <time>2019-05-10T22:55:14Z</time>
      </trkpt>
      <trkpt lat="44.86608" lon="5.91338">
        <ele>1215</ele>
        <time>2019-05-10T22:56:14Z</time>
      </trkpt>
      <trkpt lat="44.86582" lon="5.91256">
        <ele>1209</ele>
        <time>2019-05-10T22:57:14Z</time>
      </trkpt>
      <trkpt lat="44.86597" lon="5.91162">
        <ele>1213</ele>
        <time>2019-05-10T22:58:14Z</time>
      </trkpt>
      <trkpt lat="44.8661" lon="5.91016">
        <ele>1212</ele>
        <time>2019-05-10T22:59:14Z</time>
      </trkpt>
      <trkpt lat="44.86612" lon="5.90898">
        <ele>1208</ele>
        <time>2019-05-10T23:00:14Z</time>
      </trkpt>
      <trkpt lat="44.86642" lon="5.90831">
        <ele>1209</ele>
        <time>2019-05-10T23:01:14Z</time>
      </trkpt>
      <trkpt lat="44.86726" lon="5.90886">
        <ele>1223</ele>
        <time>2019-05-10T23:02:14Z</time>
      </trkpt>
      <trkpt lat="44.8684" lon="5.90934">
        <ele>1234</ele>
        <time>2019-05-10T23:03:14Z</time>
      </trkpt>
      <trkpt lat="44.86926" lon="5.91047">
        <ele>1247</ele>
        <time>2019-05-10T23:04:14Z</time>
      </trkpt>
      <trkpt lat="44.87014" lon="5.9108">
        <ele>1253</ele>
        <time>2019-05-10T23:05:14Z</time>
      </trkpt>
      <trkpt lat="44.87038" lon="5.91147">
        <ele>1259</ele>
        <time>2019-05-10T23:06:14Z</time>
      </trkpt>
      <trkpt lat="44.86978" lon="5.91235">
        <ele>1274</ele>
        <time>2019-05-10T23:07:14Z</time>
      </trkpt>
      <trkpt lat="44.8693" lon="5.9121">
        <ele>1275</ele>
        <time>2019-05-10T23:08:14Z</time>
      </trkpt>
      <trkpt lat="44.86853" lon="5.91198">
        <ele>1279</ele>
        <time>2019-05-10T23:09:14Z</time>
      </trkpt>
      <trkpt lat="44.8679" lon="5.91238">
        <ele>1281</ele>
        <time>2019-05-10T23:10:14Z</time>
      </trkpt>
      <trkpt lat="44.86808" lon="5.91359">
        <ele>1289</ele>
        <time>2019-05-10T23:11:14Z</time>
      </trkpt>
      <trkpt lat="44.8698" lon="5.91508">
        <ele>1303</ele>
        <time>2019-05-10T23:12:14Z</time>
      </trkpt>
      <trkpt lat="44.87137" lon="5.91629">
        <ele>1318</ele>
        <time>2019-05-10T23:13:14Z</time>
      </trkpt>
      <trkpt lat="44.87249" lon="5.91623">
        <ele>1339</ele>
        <time>2019-05-10T23:14:14Z</time>
      </trkpt>
      <trkpt lat="44.87356" lon="5.91638">
        <ele>1352</ele>
        <time>2019-05-10T23:15:14Z</time>
      </trkpt>
      <trkpt lat="44.87398" lon="5.91665">
        <ele>1362</ele>
        <time>2019-05-10T23:16:14Z</time>
      </trkpt>
      <trkpt lat="44.8744" lon="5.91656">
        <ele>1365</ele>
        <time>2019-05-10T23:17:14Z</time>
      </trkpt>
      <trkpt lat="44.87423" lon="5.91688">
        <ele>1368</ele>
        <time>2019-05-10T23:18:14Z</time>
      </trkpt>
      <trkpt lat="44.87337" lon="5.91747">
        <ele>1370</ele>
        <time>2019-05-10T23:19:14Z</time>
      </trkpt>
      <trkpt lat="44.87325" lon="5.91782">
        <ele>1368</ele>
        <time>2019-05-10T23:20:14Z</time>
      </trkpt>
      <trkpt lat="44.87359" lon="5.91883">
        <ele>1377</ele>
        <time>2019-05-10T23:21:14Z</time>
      </trkpt>
      <trkpt lat="44.87357" lon="5.91961">
        <ele>1372</ele>
        <time>2019-05-10T23:22:14Z</time>
      </trkpt>
      <trkpt lat="44.87413" lon="5.92036">
        <ele>1383</ele>
        <time>2019-05-10T23:23:14Z</time>
      </trkpt>
      <trkpt lat="44.87476" lon="5.92107">
        <ele>1383</ele>
        <time>2019-05-10T23:24:14Z</time>
      </trkpt>
      <trkpt lat="44.87524" lon="5.92192">
        <ele>1382</ele>
        <time>2019-05-10T23:25:14Z</time>
      </trkpt>
      <trkpt lat="44.87547" lon="5.92257">
        <ele>1380</ele>
        <time>2019-05-10T23:26:14Z</time>
      </trkpt>
      <trkpt lat="44.87575" lon="5.9229">
        <ele>1383</ele>
        <time>2019-05-10T23:27:14Z</time>
      </trkpt>
      <trkpt lat="44.87638" lon="5.92322">
        <ele>1375</ele>
        <time>2019-05-10T23:28:14Z</time>
      </trkpt>
      <trkpt lat="44.87651" lon="5.92386">
        <ele>1375</ele>
        <time>2019-05-10T23:29:14Z</time>
      </trkpt>
      <trkpt lat="44.87634" lon="5.92507">
        <ele>1392</ele>
        <time>2019-05-10T23:30:14Z</time>
      </trkpt>
      <trkpt lat="44.87609" lon="5.92502">
        <ele>1396</ele>
        <time>2019-05-10T23:31:14Z</time>
      </trkpt>
      <trkpt lat="44.87583" lon="5.92514">
        <ele>1405</ele>
        <time>2019-05-10T23:32:14Z</time>
      </trkpt>
      <trkpt lat="44.87601" lon="5.92539">
        <ele>1407</ele>
        <time>2019-05-10T23:33:14Z</time>
      </trkpt>
      <trkpt lat="44.87622" lon="5.92646">
        <ele>1425</ele>
        <time>2019-05-10T23:34:14Z</time>
      </trkpt>
      <trkpt lat="44.87613" lon="5.92715">
        <ele>1445</ele>
        <time>2019-05-10T23:35:14Z</time>
      </trkpt>
      <trkpt lat="44.87603" lon="5.92769">
        <ele>1458</ele>
        <time>2019-05-10T23:36:14Z</time>
      </trkpt>
      <trkpt lat="44.87616" lon="5.92779">
        <ele>1458</ele>
        <time>2019-05-10T23:37:14Z</time>
      </trkpt>
      <trkpt lat="44.87637" lon="5.92765">
        <ele>1452</ele>
        <time>2019-05-10T23:38:14Z</time>
      </trkpt>
      <trkpt lat="44.87665" lon="5.92732">
        <ele>1436</ele>
        <time>2019-05-10T23:39:14Z</time>
      </trkpt>
      <trkpt lat="44.8769" lon="5.92697">
        <ele>1420</ele>
        <time>2019-05-10T23:40:14Z</time>
      </trkpt>
      <trkpt lat="44.87709" lon="5.9269">
        <ele>1414</ele>
        <time>2019-05-10T23:41:14Z</time>
      </trkpt>
      <trkpt lat="44.87762" lon="5.92712">
        <ele>1409</ele>
        <time>2019-05-10T23:42:14Z</time>
      </trkpt>
      <trkpt lat="44.87776" lon="5.92751">
        <ele>1413</ele>
        <time>2019-05-10T23:43:14Z</time>
      </trkpt>
      <trkpt lat="44.87784" lon="5.92802">
        <ele>1411</ele>
        <time>2019-05-10T23:44:14Z</time>
      </trkpt>
      <trkpt lat="44.87785" lon="5.92842">
        <ele>1413</ele>
        <time>2019-05-10T23:45:14Z</time>
      </trkpt>
      <trkpt lat="44.87797" lon="5.92885">
        <ele>1404</ele>
        <time>2019-05-10T23:46:14Z</time>
      </trkpt>
      <trkpt lat="44.87797" lon="5.93002">
        <ele>1406</ele>
        <time>2019-05-10T23:47:14Z</time>
      </trkpt>
      <trkpt lat="44.87831" lon="5.93059">
        <ele>1385</ele>
        <time>2019-05-10T23:48:14Z</time>
      </trkpt>
      <trkpt lat="44.87843" lon="5.93103">
        <ele>1378</ele>
        <time>2019-05-10T23:49:14Z</time>
      </trkpt>
      <trkpt lat="44.87833" lon="5.93137">
        <ele>1387</ele>
        <time>2019-05-10T23:50:14Z</time>
      </trkpt>
      <trkpt lat="44.87868" lon="5.93234">
        <ele>1385</ele>
        <time>2019-05-10T23:51:14Z</time>
      </trkpt>
      <trkpt lat="44.87908" lon="5.93243">
        <ele>1367</ele>
        <time>2019-05-10T23:52:14Z</time>
      </trkpt>
      <trkpt lat="44.87953" lon="5.93291">
        <ele>1357</ele>
        <time>2019-05-10T23:53:14Z</time>
      </trkpt>
      <trkpt lat="44.87955" lon="5.93334">
        <ele>1368</ele>
        <time>2019-05-10T23:54:14Z</time>
      </trkpt>
      <trkpt lat="44.87993" lon="5.93366">
        <ele>1362</ele>
        <time>2019-05-10T23:55:14Z</time>
      </trkpt>
      <trkpt lat="44.88069" lon="5.93341">
        <ele>1345</ele>
        <time>2019-05-10T23:56:14Z</time>
      </trkpt>
      <trkpt lat="44.88176" lon="5.93219">
        <ele>1302</ele>
        <time>2019-05-10T23:57:14Z</time>
      </trkpt>
      <trkpt lat="44.88199" lon="5.93226">
        <ele>1297</ele>
        <time>2019-05-10T23:58:14Z</time>
      </trkpt>
      <trkpt lat="44.8821" lon="5.93273">
        <ele>1305</ele>
        <time>2019-05-10T23:59:14Z</time>
      </trkpt>
      <trkpt lat="44.8821" lon="5.93318">
        <ele>1312</ele>
        <time>2019-05-11T00:00:14Z</time>
      </trkpt>
      <trkpt lat="44.88224" lon="5.93437">
        <ele>1313</ele>
        <time>2019-05-11T00:01:14Z</time>
      </trkpt>
      <trkpt lat="44.88265" lon="5.93578">
        <ele>1305</ele>
        <time>2019-05-11T00:02:14Z</time>
      </trkpt>
      <trkpt lat="44.88325" lon="5.93592">
        <ele>1277</ele>
        <time>2019-05-11T00:03:14Z</time>
      </trkpt>
      <trkpt lat="44.88357" lon="5.93636">
        <ele>1288</ele>
        <time>2019-05-11T00:04:14Z</time>
      </trkpt>
      <trkpt lat="44.88434" lon="5.93633">
        <ele>1261</ele>
        <time>2019-05-11T00:05:14Z</time>
      </trkpt>
      <trkpt lat="44.8865" lon="5.93854">
        <ele>1224</ele>
        <time>2019-05-11T00:06:14Z</time>
      </trkpt>
      <trkpt lat="44.88641" lon="5.93905">
        <ele>1233</ele>
        <time>2019-05-11T00:07:14Z</time>
      </trkpt>
      <trkpt lat="44.8865" lon="5.93997">
        <ele>1234</ele>
        <time>2019-05-11T00:08:14Z</time>
      </trkpt>
      <trkpt lat="44.88694" lon="5.94055">
        <ele>1222</ele>
        <time>2019-05-11T00:09:14Z</time>
      </trkpt>
      <trkpt lat="44.8877" lon="5.94117">
        <ele>1205</ele>
        <time>2019-05-11T00:10:14Z</time>
      </trkpt>
      <trkpt lat="44.88819" lon="5.94209">
        <ele>1215</ele>
        <time>2019-05-11T00:11:14Z</time>
      </trkpt>
      <trkpt lat="44.89016" lon="5.94216">
        <ele>1183</ele>
        <time>2019-05-11T00:12:14Z</time>
      </trkpt>
      <trkpt lat="44.89028" lon="5.94181">
        <ele>1173</ele>
        <time>2019-05-11T00:13:14Z</time>
      </trkpt>
      <trkpt lat="44.88972" lon="5.94186">
        <ele>1172</ele>
        <time>2019-05-11T00:14:14Z</time>
      </trkpt>
      <trkpt lat="44.889" lon="5.94168">
        <ele>1172</ele>
        <time>2019-05-11T00:15:14Z</time>
      </trkpt>
      <trkpt lat="44.88873" lon="5.94124">
        <ele>1170</ele>
        <time>2019-05-11T00:16:14Z</time>
      </trkpt>
      <trkpt lat="44.88903" lon="5.94048">
        <ele>1149</ele>
        <time>2019-05-11T00:17:14Z</time>
      </trkpt>
      <trkpt lat="44.88869" lon="5.93976">
        <ele>1147</ele>
        <time>2019-05-11T00:18:14Z</time>
      </trkpt>
      <trkpt lat="44.88853" lon="5.93892">
        <ele>1134</ele>
        <time>2019-05-11T00:19:14Z</time>
      </trkpt>
      <trkpt lat="44.88867" lon="5.93795">
        <ele>1124</ele>
        <time>2019-05-11T00:20:14Z</time>
      </trkpt>
      <trkpt lat="44.88885" lon="5.93731">
        <ele>1120</ele>
        <time>2019-05-11T00:21:14Z</time>
      </trkpt>
      <trkpt lat="44.88974" lon="5.93647">
        <ele>1103</ele>
        <time>2019-05-11T00:22:14Z</time>
      </trkpt>
      <trkpt lat="44.88961" lon="5.93589">
        <ele>1106</ele>
        <time>2019-05-11T00:23:14Z</time>
      </trkpt>
      <trkpt lat="44.88972" lon="5.93499">
        <ele>1093</ele>
        <time>2019-05-11T00:24:14Z</time>
      </trkpt>
      <trkpt lat="44.88938" lon="5.93463">
        <ele>1099</ele>
        <time>2019-05-11T00:25:14Z</time>
      </trkpt>
      <trkpt lat="44.88963" lon="5.93372">
        <ele>1083</ele>
        <time>2019-05-11T00:26:14Z</time>
      </trkpt>
      <trkpt lat="44.88949" lon="5.93293">
        <ele>1078</ele>
        <time>2019-05-11T00:27:14Z</time>
      </trkpt>
      <trkpt lat="44.8896" lon="5.93201">
        <ele>1058</ele>
        <time>2019-05-11T00:28:14Z</time>
      </trkpt>
      <trkpt lat="44.8892" lon="5.93116">
        <ele>1058</ele>
        <time>2019-05-11T00:29:14Z</time>
      </trkpt>
      <trkpt lat="44.88875" lon="5.9305">
        <ele>1039</ele>
        <time>2019-05-11T00:30:14Z</time>
      </trkpt>
      <trkpt lat="44.88766" lon="5.93119">
        <ele>1042</ele>
        <time>2019-05-11T00:31:14Z</time>
      </trkpt>
      <trkpt lat="44.88715" lon="5.93099">
        <ele>1023</ele>
        <time>2019-05-11T00:32:14Z</time>
      </trkpt>
      <trkpt lat="44.88652" lon="5.93139">
        <ele>1030</ele>
        <time>2019-05-11T00:33:14Z</time>
      </trkpt>
      <trkpt lat="44.88591" lon="5.93147">
        <ele>1036</ele>
        <time>2019-05-11T00:34:14Z</time>
      </trkpt>
      <trkpt lat="44.88578" lon="5.93109">
        <ele>1028</ele>
        <time>2019-05-11T00:35:14Z</time>
      </trkpt>
      <trkpt lat="44.88594" lon="5.93027">
        <ele>1005</ele>
        <time>2019-05-11T00:36:14Z</time>
      </trkpt>
      <trkpt lat="44.88551" lon="5.9282">
        <ele>983</ele>
        <time>2019-05-11T00:37:14Z</time>
      </trkpt>
      <trkpt lat="44.88526" lon="5.92723">
        <ele>972</ele>
        <time>2019-05-11T00:38:14Z</time>
      </trkpt>
      <trkpt lat="44.88501" lon="5.92654">
        <ele>959</ele>
        <time>2019-05-11T00:39:14Z</time>
      </trkpt>
      <trkpt lat="44.88452" lon="5.92624">
        <ele>963</ele>
        <time>2019-05-11T00:40:14Z</time>
      </trkpt>
      <trkpt lat="44.88428" lon="5.92586">
        <ele>958</ele>
        <time>2019-05-11T00:41:14Z</time>
      </trkpt>
      <trkpt lat="44.88433" lon="5.9256">
        <ele>954</ele>
        <time>2019-05-11T00:42:14Z</time>
      </trkpt>
      <trkpt lat="44.88456" lon="5.92555">
        <ele>947</ele>
        <time>2019-05-11T00:43:14Z</time>
      </trkpt>
      <trkpt lat="44.88437" lon="5.92468">
        <ele>943</ele>
        <time>2019-05-11T00:44:14Z</time>
      </trkpt>
      <trkpt lat="44.88412" lon="5.92452">
        <ele>948</ele>
        <time>2019-05-11T00:45:14Z</time>
      </trkpt>
      <trkpt lat="44.88385" lon="5.92457">
        <ele>961</ele>
        <time>2019-05-11T00:46:14Z</time>
      </trkpt>
      <trkpt lat="44.88369" lon="5.92453">
        <ele>968</ele>
        <time>2019-05-11T00:47:14Z</time>
      </trkpt>
      <trkpt lat="44.88358" lon="5.92429">
        <ele>971</ele>
        <time>2019-05-11T00:48:14Z</time>
      </trkpt>
      <trkpt lat="44.88408" lon="5.92318">
        <ele>957</ele>
        <time>2019-05-11T00:49:14Z</time>
      </trkpt>
      <trkpt lat="44.88433" lon="5.92236">
        <ele>949</ele>
        <time>2019-05-11T00:50:14Z</time>
      </trkpt>
      <trkpt lat="44.88372" lon="5.91892">
        <ele>952</ele>
        <time>2019-05-11T00:51:14Z</time>
      </trkpt>
      <trkpt lat="44.88352" lon="5.91795">
        <ele>950</ele>
        <time>2019-05-11T00:52:14Z</time>
      </trkpt>
      <trkpt lat="44.8832" lon="5.91649">
        <ele>948</ele>
        <time>2019-05-11T00:53:14Z</time>
      </trkpt>
      <trkpt lat="44.88291" lon="5.91552">
        <ele>952</ele>
        <time>2019-05-11T00:54:14Z</time>
      </trkpt>
      <trkpt lat="44.88291" lon="5.91435">
        <ele>951</ele>
        <time>2019-05-11T00:55:14Z</time>
      </trkpt>
      <trkpt lat="44.88278" lon="5.91203">
        <ele>945</ele>
        <time>2019-05-11T00:56:14Z</time>
      </trkpt>
      <trkpt lat="44.88269" lon="5.90981">
        <ele>952</ele>
        <time>2019-05-11T00:57:14Z</time>
      </trkpt>
      <trkpt lat="44.883" lon="5.90787">
        <ele>944</ele>
        <time>2019-05-11T00:58:14Z</time>
      </trkpt>
      <trkpt lat="44.88312" lon="5.9059">
        <ele>948</ele>
        <time>2019-05-11T00:59:14Z</time>
      </trkpt>
      <trkpt lat="44.88343" lon="5.90368">
        <ele>951</ele>
        <time>2019-05-11T01:00:14Z</time>
      </trkpt>
      <trkpt lat="44.88394" lon="5.90151">
        <ele>956</ele>
        <time>2019-05-11T01:01:14Z</time>
      </trkpt>
      <trkpt lat="44.8845" lon="5.89968">
        <ele>939</ele>
        <time>2019-05-11T01:02:14Z</time>
      </trkpt>
      <trkpt lat="44.8847" lon="5.89832">
        <ele>935</ele>
        <time>2019-05-11T01:03:14Z</time>
      </trkpt>
      <trkpt lat="44.88455" lon="5.89771">
        <ele>954</ele>
        <time>2019-05-11T01:04:14Z</time>
      </trkpt>
      <trkpt lat="44.88491" lon="5.89715">
        <ele>935</ele>
        <time>2019-05-11T01:05:14Z</time>
      </trkpt>
      <trkpt lat="44.88511" lon="5.89544">
        <ele>933</ele>
        <time>2019-05-11T01:06:14Z</time>
      </trkpt>
      <trkpt lat="44.88495" lon="5.89465">
        <ele>950</ele>
        <time>2019-05-11T01:07:14Z</time>
      </trkpt>
      <trkpt lat="44.88499" lon="5.89286">
        <ele>952</ele>
        <time>2019-05-11T01:08:14Z</time>
      </trkpt>
      <trkpt lat="44.88533" lon="5.89217">
        <ele>929</ele>
        <time>2019-05-11T01:09:14Z</time>
      </trkpt>
      <trkpt lat="44.88504" lon="5.89113">
        <ele>957</ele>
        <time>2019-05-11T01:10:14Z</time>
      </trkpt>
      <trkpt lat="44.88593" lon="5.89011">
        <ele>916</ele>
        <time>2019-05-11T01:11:14Z</time>
      </trkpt>
      <trkpt lat="44.88583" lon="5.88878">
        <ele>948</ele>
        <time>2019-05-11T01:12:14Z</time>
      </trkpt>
      <trkpt lat="44.88629" lon="5.88786">
        <ele>932</ele>
        <time>2019-05-11T01:13:14Z</time>
      </trkpt>
      <trkpt lat="44.88706" lon="5.88457">
        <ele>931</ele>
        <time>2019-05-11T01:14:14Z</time>
      </trkpt>
      <trkpt lat="44.88679" lon="5.88301">
        <ele>950</ele>
        <time>2019-05-11T01:15:14Z</time>
      </trkpt>
      <trkpt lat="44.88753" lon="5.88186">
        <ele>937</ele>
        <time>2019-05-11T01:16:14Z</time>
      </trkpt>
      <trkpt lat="44.88766" lon="5.88115">
        <ele>944</ele>
        <time>2019-05-11T01:17:14Z</time>
      </trkpt>
      <trkpt lat="44.88795" lon="5.88033">
        <ele>934</ele>
        <time>2019-05-11T01:18:14Z</time>
      </trkpt>
      <trkpt lat="44.88773" lon="5.87865">
        <ele>946</ele>
        <time>2019-05-11T01:19:14Z</time>
      </trkpt>
      <trkpt lat="44.88782" lon="5.87732">
        <ele>937</ele>
        <time>2019-05-11T01:20:14Z</time>
      </trkpt>
      <trkpt lat="44.88759" lon="5.87656">
        <ele>950</ele>
        <time>2019-05-11T01:21:14Z</time>
      </trkpt>
      <trkpt lat="44.88759" lon="5.8752">
        <ele>934</ele>
        <time>2019-05-11T01:22:14Z</time>
      </trkpt>
      <trkpt lat="44.88721" lon="5.87454">
        <ele>959</ele>
        <time>2019-05-11T01:23:14Z</time>
      </trkpt>
      <trkpt lat="44.88753" lon="5.87334">
        <ele>945</ele>
        <time>2019-05-11T01:24:14Z</time>
      </trkpt>
      <trkpt lat="44.8875" lon="5.87252">
        <ele>955</ele>
        <time>2019-05-11T01:25:14Z</time>
      </trkpt>
      <trkpt lat="44.88775" lon="5.87191">
        <ele>953</ele>
        <time>2019-05-11T01:26:14Z</time>
      </trkpt>
      <trkpt lat="44.88887" lon="5.87048">
        <ele>941</ele>
        <time>2019-05-11T01:27:14Z</time>
      </trkpt>
      <trkpt lat="44.88936" lon="5.86923">
        <ele>951</ele>
        <time>2019-05-11T01:28:14Z</time>
      </trkpt>
      <trkpt lat="44.89001" lon="5.86875">
        <ele>932</ele>
        <time>2019-05-11T01:29:14Z</time>
      </trkpt>
      <trkpt lat="44.89037" lon="5.86791">
        <ele>941</ele>
        <time>2019-05-11T01:30:14Z</time>
      </trkpt>
      <trkpt lat="44.89099" lon="5.86706">
        <ele>942</ele>
        <time>2019-05-11T01:31:14Z</time>
      </trkpt>
      <trkpt lat="44.89164" lon="5.86648">
        <ele>930</ele>
        <time>2019-05-11T01:32:14Z</time>
      </trkpt>
      <trkpt lat="44.89214" lon="5.86561">
        <ele>927</ele>
        <time>2019-05-11T01:33:14Z</time>
      </trkpt>
      <trkpt lat="44.89209" lon="5.86469">
        <ele>930</ele>
        <time>2019-05-11T01:34:14Z</time>
      </trkpt>
      <trkpt lat="44.89095" lon="5.86344">
        <ele>934</ele>
        <time>2019-05-11T01:35:14Z</time>
      </trkpt>
      <trkpt lat="44.89016" lon="5.8628">
        <ele>942</ele>
        <time>2019-05-11T01:36:14Z</time>
      </trkpt>
      <trkpt lat="44.88938" lon="5.86191">
        <ele>940</ele>
        <time>2019-05-11T01:37:14Z</time>
      </trkpt>
      <trkpt lat="44.88846" lon="5.86043">
        <ele>932</ele>
        <time>2019-05-11T01:38:14Z</time>
      </trkpt>
      <trkpt lat="44.88781" lon="5.85966">
        <ele>943</ele>
        <time>2019-05-11T01:39:14Z</time>
      </trkpt>
      <trkpt lat="44.88746" lon="5.85867">
        <ele>941</ele>
        <time>2019-05-11T01:40:14Z</time>
      </trkpt>
      <trkpt lat="44.88721" lon="5.85775">
        <ele>931</ele>
        <time>2019-05-11T01:41:14Z</time>
      </trkpt>
      <trkpt lat="44.88565" lon="5.85635">
        <ele>929</ele>
        <time>2019-05-11T01:42:14Z</time>
      </trkpt>
      <trkpt lat="44.88421" lon="5.85609">
        <ele>930</ele>
        <time>2019-05-11T01:43:14Z</time>
      </trkpt>
      <trkpt lat="44.88357" lon="5.85573">
        <ele>930</ele>
        <time>2019-05-11T01:44:14Z</time>
      </trkpt>
      <trkpt lat="44.88312" lon="5.85515">
        <ele>929</ele>
        <time>2019-05-11T01:45:14Z</time>
      </trkpt>
      <trkpt lat="44.88357" lon="5.85413">
        <ele>924</ele>
        <time>2019-05-11T01:46:14Z</time>
      </trkpt>
      <trkpt lat="44.88285" lon="5.85224">
        <ele>925</ele>
        <time>2019-05-11T01:47:14Z</time>
      </trkpt>
      <trkpt lat="44.88178" lon="5.85163">
        <ele>933</ele>
        <time>2019-05-11T01:48:14Z</time>
      </trkpt>
      <trkpt lat="44.88095" lon="5.85186">
        <ele>929</ele>
        <time>2019-05-11T01:49:14Z</time>
      </trkpt>
      <trkpt lat="44.88019" lon="5.85127">
        <ele>926</ele>
        <time>2019-05-11T01:50:14Z</time>
      </trkpt>
      <trkpt lat="44.87938" lon="5.85053">
        <ele>926</ele>
        <time>2019-05-11T01:51:14Z</time>
      </trkpt>
      <trkpt lat="44.87909" lon="5.85038">
        <ele>924</ele>
        <time>2019-05-11T01:52:14Z</time>
      </trkpt>
      <trkpt lat="44.87833" lon="5.84951">
        <ele>916</ele>
        <time>2019-05-11T01:53:14Z</time>
      </trkpt>
      <trkpt lat="44.87772" lon="5.84933">
        <ele>910</ele>
        <time>2019-05-11T01:54:14Z</time>
      </trkpt>
      <trkpt lat="44.8769" lon="5.84867">
        <ele>909</ele>
        <time>2019-05-11T01:55:14Z</time>
      </trkpt>
      <trkpt lat="44.87652" lon="5.84823">
        <ele>909</ele>
        <time>2019-05-11T01:56:14Z</time>
      </trkpt>
      <trkpt lat="44.87643" lon="5.84757">
        <ele>907</ele>
        <time>2019-05-11T01:57:14Z</time>
      </trkpt>
      <trkpt lat="44.87658" lon="5.84678">
        <ele>897</ele>
        <time>2019-05-11T01:58:14Z</time>
      </trkpt>
      <trkpt lat="44.87761" lon="5.84458">
        <ele>884</ele>
        <time>2019-05-11T01:59:14Z</time>
      </trkpt>
      <trkpt lat="44.87835" lon="5.84144">
        <ele>879</ele>
        <time>2019-05-11T02:00:14Z</time>
      </trkpt>
      <trkpt lat="44.87947" lon="5.83771">
        <ele>878</ele>
        <time>2019-05-11T02:01:14Z</time>
      </trkpt>
      <trkpt lat="44.87968" lon="5.83616">
        <ele>881</ele>
        <time>2019-05-11T02:02:14Z</time>
      </trkpt>
      <trkpt lat="44.87962" lon="5.836">
        <ele>880</ele>
        <time>2019-05-11T02:03:14Z</time>
      </trkpt>
      <trkpt lat="44.88021" lon="5.83558">
        <ele>891</ele>
        <time>2019-05-11T02:04:14Z</time>
      </trkpt>
      <trkpt lat="44.88034" lon="5.83541">
        <ele>894</ele>
        <time>2019-05-11T02:05:14Z</time>
      </trkpt>
      <trkpt lat="44.88098" lon="5.8351">
        <ele>906</ele>
        <time>2019-05-11T02:06:14Z</time>
      </trkpt>
      <trkpt lat="44.8817" lon="5.83529">
        <ele>915</ele>
        <time>2019-05-11T02:07:14Z</time>
      </trkpt>
      <trkpt lat="44.8822" lon="5.83558">
        <ele>915</ele>
        <time>2019-05-11T02:08:14Z</time>
      </trkpt>
      <trkpt lat="44.88294" lon="5.83664">
        <ele>910</ele>
        <time>2019-05-11T02:09:14Z</time>
      </trkpt>
      <trkpt lat="44.88371" lon="5.83763">
        <ele>903</ele>
        <time>2019-05-11T02:10:14Z</time>
      </trkpt>
      <trkpt lat="44.88479" lon="5.83846">
        <ele>894</ele>
        <time>2019-05-11T02:11:14Z</time>
      </trkpt>
      <trkpt lat="44.88578" lon="5.83873">
        <ele>887</ele>
        <time>2019-05-11T02:12:14Z</time>
      </trkpt>
      <trkpt lat="44.88659" lon="5.83876">
        <ele>879</ele>
        <time>2019-05-11T02:13:14Z</time>
      </trkpt>
      <trkpt lat="44.88704" lon="5.83867">
        <ele>875</ele>
        <time>2019-05-11T02:14:14Z</time>
      </trkpt>
      <trkpt lat="44.88731" lon="5.83849">
        <ele>869</ele>
        <time>2019-05-11T02:15:14Z</time>
      </trkpt>
      <trkpt lat="44.88757" lon="5.83826">
        <ele>861</ele>
        <time>2019-05-11T02:16:14Z</time>
      </trkpt>
      <trkpt lat="44.88773" lon="5.83787">
        <ele>852</ele>
        <time>2019-05-11T02:17:14Z</time>
      </trkpt>
      <trkpt lat="44.88762" lon="5.83788">
        <ele>852</ele>
        <time>2019-05-11T02:18:14Z</time>
      </trkpt>
      <trkpt lat="44.88766" lon="5.83769">
        <ele>847</ele>
        <time>2019-05-11T02:19:14Z</time>
      </trkpt>
      <trkpt lat="44.88827" lon="5.83681">
        <ele>838</ele>
        <time>2019-05-11T02:20:14Z</time>
      </trkpt>
      <trkpt lat="44.88841" lon="5.8364">
        <ele>834</ele>
        <time>2019-05-11T02:21:14Z</time>
      </trkpt>
      <trkpt lat="44.88904" lon="5.83549">
        <ele>830</ele>
        <time>2019-05-11T02:22:14Z</time>
      </trkpt>
      <trkpt lat="44.88906" lon="5.83519">
        <ele>828</ele>
        <time>2019-05-11T02:23:14Z</time>
      </trkpt>
      <trkpt lat="44.88947" lon="5.83476">
        <ele>827</ele>
        <time>2019-05-11T02:24:14Z</time>
      </trkpt>
      <trkpt lat="44.88968" lon="5.83427">
        <ele>823</ele>
        <time>2019-05-11T02:25:14Z</time>
      </trkpt>
      <trkpt lat="44.88967" lon="5.8338">
        <ele>816</ele>
        <time>2019-05-11T02:26:14Z</time>
      </trkpt>
      <trkpt lat="44.89015" lon="5.83297">
        <ele>808</ele>
        <time>2019-05-11T02:27:14Z</time>
      </trkpt>
      <trkpt lat="44.89051" lon="5.83223">
        <ele>805</ele>
        <time>2019-05-11T02:28:14Z</time>
      </trkpt>
      <trkpt lat="44.89011" lon="5.83265">
        <ele>801</ele>
        <time>2019-05-11T02:29:14Z</time>
      </trkpt>
      <trkpt lat="44.89014" lon="5.83226">
        <ele>796</ele>
        <time>2019-05-11T02:30:14Z</time>
      </trkpt>
      <trkpt lat="44.89011" lon="5.8316">
        <ele>786</ele>
        <time>2019-05-11T02:31:14Z</time>
      </trkpt>
      <trkpt lat="44.89022" lon="5.83071">
        <ele>781</ele>
        <time>2019-05-11T02:32:14Z</time>
      </trkpt>
      <trkpt lat="44.89057" lon="5.82987">
        <ele>780</ele>
        <time>2019-05-11T02:33:14Z</time>
      </trkpt>
      <trkpt lat="44.89062" lon="5.82898">
        <ele>774</ele>
        <time>2019-05-11T02:34:14Z</time>
      </trkpt>
      <trkpt lat="44.89054" lon="5.82865">
        <ele>772</ele>
        <time>2019-05-11T02:35:14Z</time>
      </trkpt>
      <trkpt lat="44.89021" lon="5.82836">
        <ele>771</ele>
        <time>2019-05-11T02:36:14Z</time>
      </trkpt>
      <trkpt lat="44.89044" lon="5.82754">
        <ele>770</ele>
        <time>2019-05-11T02:37:14Z</time>
      </trkpt>
      <trkpt lat="44.89007" lon="5.82654">
        <ele>773</ele>
        <time>2019-05-11T02:38:14Z</time>
      </trkpt>
      <trkpt lat="44.8907" lon="5.82504">
        <ele>773</ele>
        <time>2019-05-11T02:39:14Z</time>
      </trkpt>
      <trkpt lat="44.89155" lon="5.82458">
        <ele>769</ele>
        <time>2019-05-11T02:40:14Z</time>
      </trkpt>
      <trkpt lat="44.89236" lon="5.82338">
        <ele>764</ele>
        <time>2019-05-11T02:41:14Z</time>
      </trkpt>
      <trkpt lat="44.89312" lon="5.82271">
        <ele>758</ele>
        <time>2019-05-11T02:42:14Z</time>
      </trkpt>
      <trkpt lat="44.8939" lon="5.81955">
        <ele>735</ele>
        <time>2019-05-11T02:43:14Z</time>
      </trkpt>
      <trkpt lat="44.89377" lon="5.81848">
        <ele>724</ele>
        <time>2019-05-11T02:44:14Z</time>
      </trkpt>
      <trkpt lat="44.89319" lon="5.81782">
        <ele>722</ele>
        <time>2019-05-11T02:45:14Z</time>
      </trkpt>
      <trkpt lat="44.89278" lon="5.817">
        <ele>718</ele>
        <time>2019-05-11T02:46:14Z</time>
      </trkpt>
      <trkpt lat="44.89222" lon="5.81542">
        <ele>703</ele>
        <time>2019-05-11T02:47:14Z</time>
      </trkpt>
      <trkpt lat="44.8916" lon="5.81452">
        <ele>695</ele>
        <time>2019-05-11T02:48:14Z</time>
      </trkpt>
      <trkpt lat="44.89249" lon="5.8148">
        <ele>690</ele>
        <time>2019-05-11T02:49:14Z</time>
      </trkpt>
      <trkpt lat="44.89316" lon="5.81565">
        <ele>686</ele>
        <time>2019-05-11T02:50:14Z</time>
      </trkpt>
      <trkpt lat="44.89547" lon="5.81748">
        <ele>671</ele>
        <time>2019-05-11T02:51:14Z</time>
      </trkpt>
      <trkpt lat="44.89674" lon="5.81649">
        <ele>647</ele>
        <time>2019-05-11T02:52:14Z</time>
      </trkpt>
      <trkpt lat="44.89751" lon="5.81705">
        <ele>652</ele>
        <time>2019-05-11T02:53:14Z</time>
      </trkpt>
      <trkpt lat="44.89836" lon="5.81639">
        <ele>629</ele>
        <time>2019-05-11T02:54:14Z</time>
      </trkpt>
      <trkpt lat="44.90053" lon="5.81656">
        <ele>613</ele>
        <time>2019-05-11T02:55:14Z</time>
      </trkpt>
      <trkpt lat="44.90111" lon="5.81797">
        <ele>620</ele>
        <time>2019-05-11T02:56:14Z</time>
      </trkpt>
      <trkpt lat="44.90216" lon="5.81654">
        <ele>609</ele>
        <time>2019-05-11T02:57:14Z</time>
      </trkpt>
      <trkpt lat="44.90051" lon="5.81434">
        <ele>644</ele>
        <time>2019-05-11T02:58:14Z</time>
      </trkpt>
      <trkpt lat="44.89984" lon="5.8144">
        <ele>634</ele>
        <time>2019-05-11T02:59:14Z</time>
      </trkpt>
      <trkpt lat="44.89921" lon="5.81366">
        <ele>641</ele>
        <time>2019-05-11T03:00:14Z</time>
      </trkpt>
      <trkpt lat="44.89905" lon="5.81223">
        <ele>665</ele>
        <time>2019-05-11T03:01:14Z</time>
      </trkpt>
      <trkpt lat="44.89854" lon="5.81238">
        <ele>664</ele>
        <time>2019-05-11T03:02:14Z</time>
      </trkpt>
      <trkpt lat="44.89798" lon="5.81261">
        <ele>650</ele>
        <time>2019-05-11T03:03:14Z</time>
      </trkpt>
      <trkpt lat="44.89836" lon="5.81212">
        <ele>672</ele>
        <time>2019-05-11T03:04:14Z</time>
      </trkpt>
      <trkpt lat="44.89863" lon="5.81154">
        <ele>683</ele>
        <time>2019-05-11T03:05:14Z</time>
      </trkpt>
      <trkpt lat="44.89939" lon="5.81011">
        <ele>704</ele>
        <time>2019-05-11T03:06:14Z</time>
      </trkpt>
      <trkpt lat="44.89981" lon="5.81126">
        <ele>696</ele>
        <time>2019-05-11T03:07:14Z</time>
      </trkpt>
      <trkpt lat="44.89965" lon="5.81205">
        <ele>686</ele>
        <time>2019-05-11T03:08:14Z</time>
      </trkpt>
      <trkpt lat="44.89981" lon="5.81279">
        <ele>683</ele>
        <time>2019-05-11T03:09:14Z</time>
      </trkpt>
      <trkpt lat="44.89999" lon="5.81223">
        <ele>699</ele>
        <time>2019-05-11T03:10:14Z</time>
      </trkpt>
      <trkpt lat="44.90019" lon="5.81138">
        <ele>708</ele>
        <time>2019-05-11T03:11:14Z</time>
      </trkpt>
      <trkpt lat="44.90021" lon="5.81064">
        <ele>709</ele>
        <time>2019-05-11T03:12:14Z</time>
      </trkpt>
      <trkpt lat="44.9006" lon="5.80922">
        <ele>724</ele>
        <time>2019-05-11T03:13:14Z</time>
      </trkpt>
      <trkpt lat="44.90019" lon="5.80809">
        <ele>730</ele>
        <time>2019-05-11T03:14:14Z</time>
      </trkpt>
      <trkpt lat="44.89934" lon="5.8074">
        <ele>736</ele>
        <time>2019-05-11T03:15:14Z</time>
      </trkpt>
      <trkpt lat="44.89818" lon="5.80794">
        <ele>743</ele>
        <time>2019-05-11T03:16:14Z</time>
      </trkpt>
      <trkpt lat="44.89702" lon="5.80809">
        <ele>744</ele>
        <time>2019-05-11T03:17:14Z</time>
      </trkpt>
      <trkpt lat="44.89647" lon="5.80767">
        <ele>744</ele>
        <time>2019-05-11T03:18:14Z</time>
      </trkpt>
      <trkpt lat="44.89559" lon="5.80681">
        <ele>741</ele>
        <time>2019-05-11T03:19:14Z</time>
      </trkpt>
      <trkpt lat="44.89483" lon="5.80655">
        <ele>738</ele>
        <time>2019-05-11T03:20:14Z</time>
      </trkpt>
      <trkpt lat="44.89361" lon="5.80698">
        <ele>723</ele>
        <time>2019-05-11T03:21:14Z</time>
      </trkpt>
      <trkpt lat="44.89273" lon="5.80647">
        <ele>720</ele>
        <time>2019-05-11T03:22:14Z</time>
      </trkpt>
      <trkpt lat="44.892" lon="5.80544">
        <ele>716</ele>
        <time>2019-05-11T03:23:14Z</time>
      </trkpt>
      <trkpt lat="44.89169" lon="5.80445">
        <ele>720</ele>
        <time>2019-05-11T03:24:14Z</time>
      </trkpt>
      <trkpt lat="44.89072" lon="5.80479">
        <ele>712</ele>
        <time>2019-05-11T03:25:14Z</time>
      </trkpt>
      <trkpt lat="44.88972" lon="5.80544">
        <ele>694</ele>
        <time>2019-05-11T03:26:14Z</time>
      </trkpt>
      <trkpt lat="44.8875" lon="5.80398">
        <ele>681</ele>
        <time>2019-05-11T03:27:14Z</time>
      </trkpt>
      <trkpt lat="44.88698" lon="5.80286">
        <ele>676</ele>
        <time>2019-05-11T03:28:14Z</time>
      </trkpt>
      <trkpt lat="44.88543" lon="5.80136">
        <ele>667</ele>
        <time>2019-05-11T03:29:14Z</time>
      </trkpt>
      <trkpt lat="44.88452" lon="5.80153">
        <ele>636</ele>
        <time>2019-05-11T03:30:14Z</time>
      </trkpt>
      <trkpt lat="44.8847" lon="5.8002">
        <ele>650</ele>
        <time>2019-05-11T03:31:14Z</time>
      </trkpt>
      <trkpt lat="44.88443" lon="5.79904">
        <ele>652</ele>
        <time>2019-05-11T03:32:14Z</time>
      </trkpt>
      <trkpt lat="44.88382" lon="5.799">
        <ele>621</ele>
        <time>2019-05-11T03:33:14Z</time>
      </trkpt>
      <trkpt lat="44.88403" lon="5.79793">
        <ele>633</ele>
        <time>2019-05-11T03:34:14Z</time>
      </trkpt>
      <trkpt lat="44.88385" lon="5.79703">
        <ele>622</ele>
        <time>2019-05-11T03:35:14Z</time>
      </trkpt>
      <trkpt lat="44.88391" lon="5.79531">
        <ele>613</ele>
        <time>2019-05-11T03:36:14Z</time>
      </trkpt>
      <trkpt lat="44.88358" lon="5.79471">
        <ele>614</ele>
        <time>2019-05-11T03:37:14Z</time>
      </trkpt>
      <trkpt lat="44.88291" lon="5.79484">
        <ele>597</ele>
        <time>2019-05-11T03:38:14Z</time>
      </trkpt>
      <trkpt lat="44.88047" lon="5.79321">
        <ele>586</ele>
        <time>2019-05-11T03:39:14Z</time>
      </trkpt>
      <trkpt lat="44.8799" lon="5.79222">
        <ele>614</ele>
        <time>2019-05-11T03:40:14Z</time>
      </trkpt>
      <trkpt lat="44.87935" lon="5.7908">
        <ele>614</ele>
        <time>2019-05-11T03:41:14Z</time>
      </trkpt>
      <trkpt lat="44.87911" lon="5.78943">
        <ele>633</ele>
        <time>2019-05-11T03:42:14Z</time>
      </trkpt>
      <trkpt lat="44.87917" lon="5.789">
        <ele>636</ele>
        <time>2019-05-11T03:43:14Z</time>
      </trkpt>
      <trkpt lat="44.87953" lon="5.78814">
        <ele>616</ele>
        <time>2019-05-11T03:44:14Z</time>
      </trkpt>
      <trkpt lat="44.87941" lon="5.78746">
        <ele>624</ele>
        <time>2019-05-11T03:45:14Z</time>
      </trkpt>
      <trkpt lat="44.87908" lon="5.78604">
        <ele>598</ele>
        <time>2019-05-11T03:46:14Z</time>
      </trkpt>
      <trkpt lat="44.87722" lon="5.78522">
        <ele>644</ele>
        <time>2019-05-11T03:47:14Z</time>
      </trkpt>
      <trkpt lat="44.87616" lon="5.78449">
        <ele>640</ele>
        <time>2019-05-11T03:48:14Z</time>
      </trkpt>
      <trkpt lat="44.87509" lon="5.78419">
        <ele>662</ele>
        <time>2019-05-11T03:49:14Z</time>
      </trkpt>
      <trkpt lat="44.87448" lon="5.78304">
        <ele>638</ele>
        <time>2019-05-11T03:50:14Z</time>
      </trkpt>
      <trkpt lat="44.87381" lon="5.78282">
        <ele>676</ele>
        <time>2019-05-11T03:51:14Z</time>
      </trkpt>
      <trkpt lat="44.87333" lon="5.78179">
        <ele>677</ele>
        <time>2019-05-11T03:52:14Z</time>
      </trkpt>
      <trkpt lat="44.87324" lon="5.7805">
        <ele>660</ele>
        <time>2019-05-11T03:53:14Z</time>
      </trkpt>
      <trkpt lat="44.87187" lon="5.78098">
        <ele>700</ele>
        <time>2019-05-11T03:54:14Z</time>
      </trkpt>
      <trkpt lat="44.87059" lon="5.78059">
        <ele>708</ele>
        <time>2019-05-11T03:55:14Z</time>
      </trkpt>
      <trkpt lat="44.86962" lon="5.77887">
        <ele>693</ele>
        <time>2019-05-11T03:56:14Z</time>
      </trkpt>
      <trkpt lat="44.86825" lon="5.77943">
        <ele>707</ele>
        <time>2019-05-11T03:57:14Z</time>
      </trkpt>
      <trkpt lat="44.8674" lon="5.78012">
        <ele>718</ele>
        <time>2019-05-11T03:58:14Z</time>
      </trkpt>
      <trkpt lat="44.86673" lon="5.78016">
        <ele>729</ele>
        <time>2019-05-11T03:59:14Z</time>
      </trkpt>
      <trkpt lat="44.86606" lon="5.77832">
        <ele>731</ele>
        <time>2019-05-11T04:00:14Z</time>
      </trkpt>
      <trkpt lat="44.86506" lon="5.77789">
        <ele>750</ele>
        <time>2019-05-11T04:01:14Z</time>
      </trkpt>
      <trkpt lat="44.86475" lon="5.77656">
        <ele>739</ele>
        <time>2019-05-11T04:02:14Z</time>
      </trkpt>
      <trkpt lat="44.86426" lon="5.77565">
        <ele>749</ele>
        <time>2019-05-11T04:03:14Z</time>
      </trkpt>
      <trkpt lat="44.86387" lon="5.77437">
        <ele>745</ele>
        <time>2019-05-11T04:04:14Z</time>
      </trkpt>
      <trkpt lat="44.8629" lon="5.77317">
        <ele>759</ele>
        <time>2019-05-11T04:05:14Z</time>
      </trkpt>
      <trkpt lat="44.8625" lon="5.77162">
        <ele>763</ele>
        <time>2019-05-11T04:06:14Z</time>
      </trkpt>
      <trkpt lat="44.86192" lon="5.77106">
        <ele>773</ele>
        <time>2019-05-11T04:07:14Z</time>
      </trkpt>
      <trkpt lat="44.86201" lon="5.76965">
        <ele>770</ele>
        <time>2019-05-11T04:08:14Z</time>
      </trkpt>
      <trkpt lat="44.8615" lon="5.769">
        <ele>781</ele>
        <time>2019-05-11T04:09:14Z</time>
      </trkpt>
      <trkpt lat="44.86165" lon="5.76673">
        <ele>786</ele>
        <time>2019-05-11T04:10:14Z</time>
      </trkpt>
      <trkpt lat="44.86107" lon="5.7666">
        <ele>789</ele>
        <time>2019-05-11T04:11:14Z</time>
      </trkpt>
      <trkpt lat="44.86064" lon="5.7672">
        <ele>796</ele>
        <time>2019-05-11T04:12:14Z</time>
      </trkpt>
      <trkpt lat="44.8597" lon="5.76711">
        <ele>799</ele>
        <time>2019-05-11T04:13:14Z</time>
      </trkpt>
      <trkpt lat="44.8587" lon="5.7669">
        <ele>807</ele>
        <time>2019-05-11T04:14:14Z</time>
      </trkpt>
      <trkpt lat="44.85809" lon="5.76626">
        <ele>812</ele>
        <time>2019-05-11T04:15:14Z</time>
      </trkpt>
      <trkpt lat="44.85766" lon="5.7642">
        <ele>815</ele>
        <time>2019-05-11T04:16:14Z</time>
      </trkpt>
      <trkpt lat="44.85347" lon="5.76201">
        <ele>822</ele>
        <time>2019-05-11T04:17:14Z</time>
      </trkpt>
    </trkseg>
  </trk>
</gpx>